<?xml version="1.0" encoding="UTF-8" standalone="no" ?>
<gpx xmlns="http://www.topografix.com/GPX/1/1" xmlns:xsi="http://www.w3.org/2001/XMLSchema-instance" xsi:schemaLocation="http://www.topografix.com/GPX/1/1 http://www.topografix.com/GPX/1/1/gpx.xsd" version="1.1" creator="VisuGPX - https://www.visugpx.com">
  <metadata>
    <name>2023-09-11-46-ST CIRQ LAPOPIE</name>
    <desc><![CDATA[Randonnée de 10km pour environ 300 m de dénivelé positif. Une belle montée dès le départ sur un sentier ombragé, pour découvrir de beaux paysages. Découverte de la gariotte prés du camping de la Truffière et du cirque de Vénes : beau point de vue sur les falaises de Tour de Faure et le village de Crégols seront au rendez vous]]></desc>
  </metadata>
  <trk>
    <name><![CDATA[!ST CIRQ LA POPIE:26]]></name>
    <trkseg>
      <trkpt lat="44.44896" lon="1.6954">
        <ele>145.3</ele>
        <time>2023-08-12T10:10:14Z</time>
      </trkpt>
      <trkpt lat="44.44895" lon="1.69536">
        <ele>145.3</ele>
        <time>2023-08-12T10:09:48Z</time>
      </trkpt>
      <trkpt lat="44.44896" lon="1.69536">
        <ele>145.3</ele>
        <time>2023-08-12T10:09:26Z</time>
      </trkpt>
      <trkpt lat="44.44895" lon="1.69538">
        <ele>144.82</ele>
        <time>2023-08-12T10:09:04Z</time>
      </trkpt>
      <trkpt lat="44.44894" lon="1.69537">
        <ele>145.3</ele>
        <time>2023-08-12T10:08:48Z</time>
      </trkpt>
      <trkpt lat="44.44892" lon="1.69535">
        <ele>145.3</ele>
        <time>2023-08-12T10:08:31Z</time>
      </trkpt>
      <trkpt lat="44.44897" lon="1.69537">
        <ele>145.3</ele>
        <time>2023-08-12T10:08:18Z</time>
      </trkpt>
      <trkpt lat="44.449" lon="1.69542">
        <ele>145.78</ele>
        <time>2023-08-12T10:08:02Z</time>
      </trkpt>
      <trkpt lat="44.44903" lon="1.69548">
        <ele>145.78</ele>
        <time>2023-08-12T10:07:47Z</time>
      </trkpt>
      <trkpt lat="44.4491" lon="1.69552">
        <ele>146.26</ele>
        <time>2023-08-12T10:07:33Z</time>
      </trkpt>
      <trkpt lat="44.44911" lon="1.69549">
        <ele>146.26</ele>
        <time>2023-08-12T10:07:30Z</time>
      </trkpt>
      <trkpt lat="44.44911" lon="1.69544">
        <ele>146.74</ele>
        <time>2023-08-12T10:07:27Z</time>
      </trkpt>
      <trkpt lat="44.4491" lon="1.69539">
        <ele>147.22</ele>
        <time>2023-08-12T10:07:23Z</time>
      </trkpt>
      <trkpt lat="44.44905" lon="1.69527">
        <ele>148.66</ele>
        <time>2023-08-12T10:07:13Z</time>
      </trkpt>
      <trkpt lat="44.44894" lon="1.69512">
        <ele>151.06</ele>
        <time>2023-08-12T10:06:57Z</time>
      </trkpt>
      <trkpt lat="44.44892" lon="1.69501">
        <ele>151.54</ele>
        <time>2023-08-12T10:06:50Z</time>
      </trkpt>
      <trkpt lat="44.44903" lon="1.69497">
        <ele>153.47</ele>
        <time>2023-08-12T10:06:36Z</time>
      </trkpt>
      <trkpt lat="44.44921" lon="1.69499">
        <ele>153.47</ele>
        <time>2023-08-12T10:06:19Z</time>
      </trkpt>
      <trkpt lat="44.44924" lon="1.695">
        <ele>153.47</ele>
        <time>2023-08-12T10:06:16Z</time>
      </trkpt>
      <trkpt lat="44.44928" lon="1.695">
        <ele>153.47</ele>
        <time>2023-08-12T10:06:13Z</time>
      </trkpt>
      <trkpt lat="44.44943" lon="1.69503">
        <ele>152.03</ele>
        <time>2023-08-12T10:05:57Z</time>
      </trkpt>
      <trkpt lat="44.44961" lon="1.69501">
        <ele>152.03</ele>
        <time>2023-08-12T10:05:41Z</time>
      </trkpt>
      <trkpt lat="44.44971" lon="1.69501">
        <ele>152.03</ele>
        <time>2023-08-12T10:05:31Z</time>
      </trkpt>
      <trkpt lat="44.44989" lon="1.695">
        <ele>150.58</ele>
        <time>2023-08-12T10:05:14Z</time>
      </trkpt>
      <trkpt lat="44.45008" lon="1.69502">
        <ele>150.1</ele>
        <time>2023-08-12T10:04:57Z</time>
      </trkpt>
      <trkpt lat="44.45027" lon="1.69509">
        <ele>148.66</ele>
        <time>2023-08-12T10:04:39Z</time>
      </trkpt>
      <trkpt lat="44.45047" lon="1.69516">
        <ele>148.66</ele>
        <time>2023-08-12T10:04:21Z</time>
      </trkpt>
      <trkpt lat="44.45063" lon="1.69521">
        <ele>147.22</ele>
        <time>2023-08-12T10:04:04Z</time>
      </trkpt>
      <trkpt lat="44.45082" lon="1.69525">
        <ele>146.26</ele>
        <time>2023-08-12T10:03:47Z</time>
      </trkpt>
      <trkpt lat="44.45099" lon="1.69526">
        <ele>146.26</ele>
        <time>2023-08-12T10:03:32Z</time>
      </trkpt>
      <trkpt lat="44.4512" lon="1.6953">
        <ele>146.26</ele>
        <time>2023-08-12T10:03:15Z</time>
      </trkpt>
      <trkpt lat="44.4514" lon="1.69533">
        <ele>145.3</ele>
        <time>2023-08-12T10:02:58Z</time>
      </trkpt>
      <trkpt lat="44.45155" lon="1.69535">
        <ele>144.34</ele>
        <time>2023-08-12T10:02:44Z</time>
      </trkpt>
      <trkpt lat="44.45177" lon="1.69536">
        <ele>142.89</ele>
        <time>2023-08-12T10:02:26Z</time>
      </trkpt>
      <trkpt lat="44.452" lon="1.69537">
        <ele>141.93</ele>
        <time>2023-08-12T10:02:07Z</time>
      </trkpt>
      <trkpt lat="44.45223" lon="1.69533">
        <ele>141.93</ele>
        <time>2023-08-12T10:01:48Z</time>
      </trkpt>
      <trkpt lat="44.4525" lon="1.6953">
        <ele>141.45</ele>
        <time>2023-08-12T10:01:26Z</time>
      </trkpt>
      <trkpt lat="44.45253" lon="1.69532">
        <ele>141.45</ele>
        <time>2023-08-12T10:01:23Z</time>
      </trkpt>
      <trkpt lat="44.45276" lon="1.69535">
        <ele>140.01</ele>
        <time>2023-08-12T10:01:04Z</time>
      </trkpt>
      <trkpt lat="44.45282" lon="1.69536">
        <ele>139.53</ele>
        <time>2023-08-12T10:00:59Z</time>
      </trkpt>
      <trkpt lat="44.45284" lon="1.69535">
        <ele>139.53</ele>
        <time>2023-08-12T10:00:57Z</time>
      </trkpt>
      <trkpt lat="44.45307" lon="1.69532">
        <ele>139.53</ele>
        <time>2023-08-12T10:00:38Z</time>
      </trkpt>
      <trkpt lat="44.45332" lon="1.69528">
        <ele>137.61</ele>
        <time>2023-08-12T10:00:18Z</time>
      </trkpt>
      <trkpt lat="44.45347" lon="1.69524">
        <ele>137.61</ele>
        <time>2023-08-12T10:00:06Z</time>
      </trkpt>
      <trkpt lat="44.45368" lon="1.6952">
        <ele>137.61</ele>
        <time>2023-08-12T09:59:49Z</time>
      </trkpt>
      <trkpt lat="44.45389" lon="1.69514">
        <ele>137.61</ele>
        <time>2023-08-12T09:59:32Z</time>
      </trkpt>
      <trkpt lat="44.45409" lon="1.69512">
        <ele>137.61</ele>
        <time>2023-08-12T09:59:15Z</time>
      </trkpt>
      <trkpt lat="44.45428" lon="1.69513">
        <ele>138.09</ele>
        <time>2023-08-12T09:58:59Z</time>
      </trkpt>
      <trkpt lat="44.45447" lon="1.69515">
        <ele>139.05</ele>
        <time>2023-08-12T09:58:42Z</time>
      </trkpt>
      <trkpt lat="44.45463" lon="1.69505">
        <ele>139.53</ele>
        <time>2023-08-12T09:58:26Z</time>
      </trkpt>
      <trkpt lat="44.45481" lon="1.69496">
        <ele>140.01</ele>
        <time>2023-08-12T09:58:08Z</time>
      </trkpt>
      <trkpt lat="44.45499" lon="1.69482">
        <ele>142.41</ele>
        <time>2023-08-12T09:57:50Z</time>
      </trkpt>
      <trkpt lat="44.45518" lon="1.69473">
        <ele>142.41</ele>
        <time>2023-08-12T09:57:33Z</time>
      </trkpt>
      <trkpt lat="44.45533" lon="1.6947">
        <ele>142.41</ele>
        <time>2023-08-12T09:57:18Z</time>
      </trkpt>
      <trkpt lat="44.45552" lon="1.69471">
        <ele>142.41</ele>
        <time>2023-08-12T09:57:01Z</time>
      </trkpt>
      <trkpt lat="44.45573" lon="1.69471">
        <ele>141.93</ele>
        <time>2023-08-12T09:56:43Z</time>
      </trkpt>
      <trkpt lat="44.45594" lon="1.69469">
        <ele>140.97</ele>
        <time>2023-08-12T09:56:24Z</time>
      </trkpt>
      <trkpt lat="44.45615" lon="1.69462">
        <ele>140.01</ele>
        <time>2023-08-12T09:56:06Z</time>
      </trkpt>
      <trkpt lat="44.45622" lon="1.69464">
        <ele>140.01</ele>
        <time>2023-08-12T09:56:00Z</time>
      </trkpt>
      <trkpt lat="44.45638" lon="1.69456">
        <ele>139.53</ele>
        <time>2023-08-12T09:55:45Z</time>
      </trkpt>
      <trkpt lat="44.45647" lon="1.69445">
        <ele>138.09</ele>
        <time>2023-08-12T09:55:32Z</time>
      </trkpt>
      <trkpt lat="44.4565" lon="1.69448">
        <ele>138.09</ele>
        <time>2023-08-12T09:55:01Z</time>
      </trkpt>
      <trkpt lat="44.45647" lon="1.69445">
        <ele>138.09</ele>
        <time>2023-08-12T09:54:31Z</time>
      </trkpt>
      <trkpt lat="44.45648" lon="1.69442">
        <ele>138.09</ele>
        <time>2023-08-12T09:53:59Z</time>
      </trkpt>
      <trkpt lat="44.4565" lon="1.69444">
        <ele>138.09</ele>
        <time>2023-08-12T09:53:25Z</time>
      </trkpt>
      <trkpt lat="44.45647" lon="1.69442">
        <ele>138.09</ele>
        <time>2023-08-12T09:52:50Z</time>
      </trkpt>
      <trkpt lat="44.45648" lon="1.69442">
        <ele>139.53</ele>
        <time>2023-08-12T09:52:44Z</time>
      </trkpt>
      <trkpt lat="44.45649" lon="1.69444">
        <ele>137.61</ele>
        <time>2023-08-12T09:52:42Z</time>
      </trkpt>
      <trkpt lat="44.45649" lon="1.69443">
        <ele>138.57</ele>
        <time>2023-08-12T09:52:32Z</time>
      </trkpt>
      <trkpt lat="44.45652" lon="1.69445">
        <ele>139.53</ele>
        <time>2023-08-12T09:52:01Z</time>
      </trkpt>
      <trkpt lat="44.45652" lon="1.69445">
        <ele>140.49</ele>
        <time>2023-08-12T09:52:00Z</time>
      </trkpt>
      <trkpt lat="44.45645" lon="1.69443">
        <ele>139.05</ele>
        <time>2023-08-12T09:51:38Z</time>
      </trkpt>
      <trkpt lat="44.45638" lon="1.69428">
        <ele>140.97</ele>
        <time>2023-08-12T09:51:25Z</time>
      </trkpt>
      <trkpt lat="44.45628" lon="1.69431">
        <ele>144.34</ele>
        <time>2023-08-12T09:51:13Z</time>
      </trkpt>
      <trkpt lat="44.45621" lon="1.6943">
        <ele>148.18</ele>
        <time>2023-08-12T09:51:01Z</time>
      </trkpt>
      <trkpt lat="44.45613" lon="1.69431">
        <ele>150.1</ele>
        <time>2023-08-12T09:50:47Z</time>
      </trkpt>
      <trkpt lat="44.45609" lon="1.69429">
        <ele>151.06</ele>
        <time>2023-08-12T09:50:36Z</time>
      </trkpt>
      <trkpt lat="44.45611" lon="1.69421">
        <ele>154.43</ele>
        <time>2023-08-12T09:50:24Z</time>
      </trkpt>
      <trkpt lat="44.45613" lon="1.69414">
        <ele>157.79</ele>
        <time>2023-08-12T09:50:12Z</time>
      </trkpt>
      <trkpt lat="44.45615" lon="1.69406">
        <ele>161.16</ele>
        <time>2023-08-12T09:49:55Z</time>
      </trkpt>
      <trkpt lat="44.45619" lon="1.69398">
        <ele>163.56</ele>
        <time>2023-08-12T09:49:41Z</time>
      </trkpt>
      <trkpt lat="44.45616" lon="1.69398">
        <ele>165.48</ele>
        <time>2023-08-12T09:49:24Z</time>
      </trkpt>
      <trkpt lat="44.45619" lon="1.69393">
        <ele>166.93</ele>
        <time>2023-08-12T09:49:09Z</time>
      </trkpt>
      <trkpt lat="44.45626" lon="1.69382">
        <ele>169.33</ele>
        <time>2023-08-12T09:48:54Z</time>
      </trkpt>
      <trkpt lat="44.45633" lon="1.6937">
        <ele>172.21</ele>
        <time>2023-08-12T09:48:38Z</time>
      </trkpt>
      <trkpt lat="44.45634" lon="1.69355">
        <ele>174.62</ele>
        <time>2023-08-12T09:48:21Z</time>
      </trkpt>
      <trkpt lat="44.4563" lon="1.69355">
        <ele>177.02</ele>
        <time>2023-08-12T09:48:05Z</time>
      </trkpt>
      <trkpt lat="44.45625" lon="1.69355">
        <ele>178.94</ele>
        <time>2023-08-12T09:47:49Z</time>
      </trkpt>
      <trkpt lat="44.45615" lon="1.69352">
        <ele>181.83</ele>
        <time>2023-08-12T09:47:35Z</time>
      </trkpt>
      <trkpt lat="44.45607" lon="1.6935">
        <ele>184.23</ele>
        <time>2023-08-12T09:47:21Z</time>
      </trkpt>
      <trkpt lat="44.45607" lon="1.69344">
        <ele>185.67</ele>
        <time>2023-08-12T09:47:07Z</time>
      </trkpt>
      <trkpt lat="44.45618" lon="1.69336">
        <ele>187.59</ele>
        <time>2023-08-12T09:46:52Z</time>
      </trkpt>
      <trkpt lat="44.45629" lon="1.6932">
        <ele>189.52</ele>
        <time>2023-08-12T09:46:35Z</time>
      </trkpt>
      <trkpt lat="44.45642" lon="1.69317">
        <ele>191.92</ele>
        <time>2023-08-12T09:46:21Z</time>
      </trkpt>
      <trkpt lat="44.45651" lon="1.69314">
        <ele>194.8</ele>
        <time>2023-08-12T09:46:07Z</time>
      </trkpt>
      <trkpt lat="44.45654" lon="1.69309">
        <ele>197.69</ele>
        <time>2023-08-12T09:45:52Z</time>
      </trkpt>
      <trkpt lat="44.45657" lon="1.69304">
        <ele>197.69</ele>
        <time>2023-08-12T09:45:31Z</time>
      </trkpt>
      <trkpt lat="44.45657" lon="1.69301">
        <ele>198.17</ele>
        <time>2023-08-12T09:45:15Z</time>
      </trkpt>
      <trkpt lat="44.45658" lon="1.69294">
        <ele>201.05</ele>
        <time>2023-08-12T09:45:00Z</time>
      </trkpt>
      <trkpt lat="44.45657" lon="1.69288">
        <ele>203.94</ele>
        <time>2023-08-12T09:44:49Z</time>
      </trkpt>
      <trkpt lat="44.45653" lon="1.69277">
        <ele>206.82</ele>
        <time>2023-08-12T09:44:36Z</time>
      </trkpt>
      <trkpt lat="44.45649" lon="1.69265">
        <ele>209.7</ele>
        <time>2023-08-12T09:44:21Z</time>
      </trkpt>
      <trkpt lat="44.45644" lon="1.69255">
        <ele>212.59</ele>
        <time>2023-08-12T09:44:10Z</time>
      </trkpt>
      <trkpt lat="44.45645" lon="1.69233">
        <ele>214.51</ele>
        <time>2023-08-12T09:43:55Z</time>
      </trkpt>
      <trkpt lat="44.45644" lon="1.69214">
        <ele>216.91</ele>
        <time>2023-08-12T09:43:39Z</time>
      </trkpt>
      <trkpt lat="44.45645" lon="1.692">
        <ele>219.32</ele>
        <time>2023-08-12T09:43:24Z</time>
      </trkpt>
      <trkpt lat="44.45645" lon="1.69179">
        <ele>221.24</ele>
        <time>2023-08-12T09:43:08Z</time>
      </trkpt>
      <trkpt lat="44.45649" lon="1.69161">
        <ele>223.16</ele>
        <time>2023-08-12T09:42:53Z</time>
      </trkpt>
      <trkpt lat="44.45651" lon="1.6914">
        <ele>226.05</ele>
        <time>2023-08-12T09:42:37Z</time>
      </trkpt>
      <trkpt lat="44.45652" lon="1.69127">
        <ele>228.45</ele>
        <time>2023-08-12T09:42:27Z</time>
      </trkpt>
      <trkpt lat="44.45655" lon="1.69109">
        <ele>230.37</ele>
        <time>2023-08-12T09:42:11Z</time>
      </trkpt>
      <trkpt lat="44.45655" lon="1.69091">
        <ele>233.74</ele>
        <time>2023-08-12T09:41:59Z</time>
      </trkpt>
      <trkpt lat="44.45658" lon="1.69073">
        <ele>236.14</ele>
        <time>2023-08-12T09:41:43Z</time>
      </trkpt>
      <trkpt lat="44.45655" lon="1.69061">
        <ele>238.06</ele>
        <time>2023-08-12T09:41:30Z</time>
      </trkpt>
      <trkpt lat="44.4564" lon="1.69071">
        <ele>239.99</ele>
        <time>2023-08-12T09:41:13Z</time>
      </trkpt>
      <trkpt lat="44.45619" lon="1.69078">
        <ele>243.35</ele>
        <time>2023-08-12T09:40:56Z</time>
      </trkpt>
      <trkpt lat="44.45607" lon="1.69084">
        <ele>245.27</ele>
        <time>2023-08-12T09:40:42Z</time>
      </trkpt>
      <trkpt lat="44.45594" lon="1.6909">
        <ele>247.68</ele>
        <time>2023-08-12T09:40:26Z</time>
      </trkpt>
      <trkpt lat="44.45584" lon="1.69095">
        <ele>250.08</ele>
        <time>2023-08-12T09:40:11Z</time>
      </trkpt>
      <trkpt lat="44.45574" lon="1.69102">
        <ele>252</ele>
        <time>2023-08-12T09:39:55Z</time>
      </trkpt>
      <trkpt lat="44.45563" lon="1.69108">
        <ele>254.41</ele>
        <time>2023-08-12T09:39:39Z</time>
      </trkpt>
      <trkpt lat="44.45562" lon="1.691">
        <ele>255.85</ele>
        <time>2023-08-12T09:39:25Z</time>
      </trkpt>
      <trkpt lat="44.45557" lon="1.69092">
        <ele>257.29</ele>
        <time>2023-08-12T09:39:09Z</time>
      </trkpt>
      <trkpt lat="44.45552" lon="1.69081">
        <ele>258.73</ele>
        <time>2023-08-12T09:38:54Z</time>
      </trkpt>
      <trkpt lat="44.4555" lon="1.69068">
        <ele>261.14</ele>
        <time>2023-08-12T09:38:39Z</time>
      </trkpt>
      <trkpt lat="44.45546" lon="1.69062">
        <ele>261.14</ele>
        <time>2023-08-12T09:38:21Z</time>
      </trkpt>
      <trkpt lat="44.45543" lon="1.69048">
        <ele>262.1</ele>
        <time>2023-08-12T09:38:07Z</time>
      </trkpt>
      <trkpt lat="44.45542" lon="1.69036">
        <ele>263.06</ele>
        <time>2023-08-12T09:37:52Z</time>
      </trkpt>
      <trkpt lat="44.45547" lon="1.6902">
        <ele>264.5</ele>
        <time>2023-08-12T09:37:35Z</time>
      </trkpt>
      <trkpt lat="44.45558" lon="1.69012">
        <ele>265.94</ele>
        <time>2023-08-12T09:37:20Z</time>
      </trkpt>
      <trkpt lat="44.45572" lon="1.69011">
        <ele>266.42</ele>
        <time>2023-08-12T09:37:05Z</time>
      </trkpt>
      <trkpt lat="44.45583" lon="1.69009">
        <ele>266.42</ele>
        <time>2023-08-12T09:36:49Z</time>
      </trkpt>
      <trkpt lat="44.45585" lon="1.68996">
        <ele>267.38</ele>
        <time>2023-08-12T09:36:34Z</time>
      </trkpt>
      <trkpt lat="44.45585" lon="1.68975">
        <ele>269.31</ele>
        <time>2023-08-12T09:36:18Z</time>
      </trkpt>
      <trkpt lat="44.45587" lon="1.68966">
        <ele>271.23</ele>
        <time>2023-08-12T09:36:02Z</time>
      </trkpt>
      <trkpt lat="44.45588" lon="1.68958">
        <ele>272.19</ele>
        <time>2023-08-12T09:35:55Z</time>
      </trkpt>
      <trkpt lat="44.45589" lon="1.68954">
        <ele>272.19</ele>
        <time>2023-08-12T09:35:38Z</time>
      </trkpt>
      <trkpt lat="44.45588" lon="1.68953">
        <ele>272.19</ele>
        <time>2023-08-12T09:35:18Z</time>
      </trkpt>
      <trkpt lat="44.45587" lon="1.68951">
        <ele>272.19</ele>
        <time>2023-08-12T09:34:50Z</time>
      </trkpt>
      <trkpt lat="44.45586" lon="1.68952">
        <ele>270.75</ele>
        <time>2023-08-12T09:34:39Z</time>
      </trkpt>
      <trkpt lat="44.45587" lon="1.68953">
        <ele>270.75</ele>
        <time>2023-08-12T09:34:27Z</time>
      </trkpt>
      <trkpt lat="44.45587" lon="1.68956">
        <ele>270.75</ele>
        <time>2023-08-12T09:33:53Z</time>
      </trkpt>
      <trkpt lat="44.45587" lon="1.68955">
        <ele>270.75</ele>
        <time>2023-08-12T09:33:19Z</time>
      </trkpt>
      <trkpt lat="44.45588" lon="1.68956">
        <ele>272.19</ele>
        <time>2023-08-12T09:33:15Z</time>
      </trkpt>
      <trkpt lat="44.45588" lon="1.68954">
        <ele>271.23</ele>
        <time>2023-08-12T09:32:54Z</time>
      </trkpt>
      <trkpt lat="44.45595" lon="1.68942">
        <ele>272.67</ele>
        <time>2023-08-12T09:32:37Z</time>
      </trkpt>
      <trkpt lat="44.45596" lon="1.68941">
        <ele>272.67</ele>
        <time>2023-08-12T09:32:36Z</time>
      </trkpt>
      <trkpt lat="44.45611" lon="1.68931">
        <ele>273.15</ele>
        <time>2023-08-12T09:32:20Z</time>
      </trkpt>
      <trkpt lat="44.45628" lon="1.68918">
        <ele>274.11</ele>
        <time>2023-08-12T09:32:04Z</time>
      </trkpt>
      <trkpt lat="44.45634" lon="1.68915">
        <ele>274.11</ele>
        <time>2023-08-12T09:31:59Z</time>
      </trkpt>
      <trkpt lat="44.45654" lon="1.689">
        <ele>274.11</ele>
        <time>2023-08-12T09:31:40Z</time>
      </trkpt>
      <trkpt lat="44.45674" lon="1.68887">
        <ele>274.11</ele>
        <time>2023-08-12T09:31:22Z</time>
      </trkpt>
      <trkpt lat="44.45694" lon="1.68877">
        <ele>273.15</ele>
        <time>2023-08-12T09:31:04Z</time>
      </trkpt>
      <trkpt lat="44.45706" lon="1.68871">
        <ele>271.71</ele>
        <time>2023-08-12T09:30:51Z</time>
      </trkpt>
      <trkpt lat="44.45728" lon="1.68859">
        <ele>271.71</ele>
        <time>2023-08-12T09:30:31Z</time>
      </trkpt>
      <trkpt lat="44.45746" lon="1.68851">
        <ele>270.27</ele>
        <time>2023-08-12T09:30:15Z</time>
      </trkpt>
      <trkpt lat="44.4575" lon="1.68849">
        <ele>270.27</ele>
        <time>2023-08-12T09:30:10Z</time>
      </trkpt>
      <trkpt lat="44.45767" lon="1.68838">
        <ele>270.27</ele>
        <time>2023-08-12T09:29:53Z</time>
      </trkpt>
      <trkpt lat="44.45787" lon="1.68826">
        <ele>270.27</ele>
        <time>2023-08-12T09:29:34Z</time>
      </trkpt>
      <trkpt lat="44.45803" lon="1.68812">
        <ele>270.75</ele>
        <time>2023-08-12T09:29:17Z</time>
      </trkpt>
      <trkpt lat="44.45812" lon="1.68801">
        <ele>271.71</ele>
        <time>2023-08-12T09:29:08Z</time>
      </trkpt>
      <trkpt lat="44.45829" lon="1.68782">
        <ele>271.71</ele>
        <time>2023-08-12T09:28:50Z</time>
      </trkpt>
      <trkpt lat="44.45841" lon="1.6877">
        <ele>271.23</ele>
        <time>2023-08-12T09:28:35Z</time>
      </trkpt>
      <trkpt lat="44.45858" lon="1.68751">
        <ele>271.71</ele>
        <time>2023-08-12T09:28:18Z</time>
      </trkpt>
      <trkpt lat="44.4587" lon="1.68738">
        <ele>271.71</ele>
        <time>2023-08-12T09:28:04Z</time>
      </trkpt>
      <trkpt lat="44.45885" lon="1.68722">
        <ele>271.23</ele>
        <time>2023-08-12T09:27:47Z</time>
      </trkpt>
      <trkpt lat="44.45899" lon="1.68706">
        <ele>270.27</ele>
        <time>2023-08-12T09:27:29Z</time>
      </trkpt>
      <trkpt lat="44.45913" lon="1.68691">
        <ele>269.31</ele>
        <time>2023-08-12T09:27:12Z</time>
      </trkpt>
      <trkpt lat="44.45928" lon="1.68673">
        <ele>268.35</ele>
        <time>2023-08-12T09:26:53Z</time>
      </trkpt>
      <trkpt lat="44.45942" lon="1.68652">
        <ele>267.86</ele>
        <time>2023-08-12T09:26:35Z</time>
      </trkpt>
      <trkpt lat="44.45954" lon="1.68628">
        <ele>267.86</ele>
        <time>2023-08-12T09:26:17Z</time>
      </trkpt>
      <trkpt lat="44.45964" lon="1.68605">
        <ele>267.86</ele>
        <time>2023-08-12T09:26:00Z</time>
      </trkpt>
      <trkpt lat="44.45967" lon="1.68599">
        <ele>267.86</ele>
        <time>2023-08-12T09:25:55Z</time>
      </trkpt>
      <trkpt lat="44.45972" lon="1.68588">
        <ele>267.86</ele>
        <time>2023-08-12T09:25:46Z</time>
      </trkpt>
      <trkpt lat="44.45976" lon="1.68572">
        <ele>267.38</ele>
        <time>2023-08-12T09:25:34Z</time>
      </trkpt>
      <trkpt lat="44.45982" lon="1.68549">
        <ele>266.9</ele>
        <time>2023-08-12T09:25:18Z</time>
      </trkpt>
      <trkpt lat="44.45984" lon="1.68542">
        <ele>266.42</ele>
        <time>2023-08-12T09:25:14Z</time>
      </trkpt>
      <trkpt lat="44.45989" lon="1.68521">
        <ele>265.94</ele>
        <time>2023-08-12T09:25:01Z</time>
      </trkpt>
      <trkpt lat="44.45989" lon="1.68517">
        <ele>265.94</ele>
        <time>2023-08-12T09:24:57Z</time>
      </trkpt>
      <trkpt lat="44.45989" lon="1.68508">
        <ele>265.46</ele>
        <time>2023-08-12T09:24:43Z</time>
      </trkpt>
      <trkpt lat="44.4599" lon="1.6849">
        <ele>264.02</ele>
        <time>2023-08-12T09:24:26Z</time>
      </trkpt>
      <trkpt lat="44.45987" lon="1.68467">
        <ele>262.1</ele>
        <time>2023-08-12T09:24:08Z</time>
      </trkpt>
      <trkpt lat="44.4598" lon="1.68452">
        <ele>261.14</ele>
        <time>2023-08-12T09:23:53Z</time>
      </trkpt>
      <trkpt lat="44.45975" lon="1.68449">
        <ele>260.65</ele>
        <time>2023-08-12T09:23:35Z</time>
      </trkpt>
      <trkpt lat="44.45959" lon="1.68436">
        <ele>258.73</ele>
        <time>2023-08-12T09:23:17Z</time>
      </trkpt>
      <trkpt lat="44.45945" lon="1.68423">
        <ele>255.85</ele>
        <time>2023-08-12T09:22:59Z</time>
      </trkpt>
      <trkpt lat="44.45931" lon="1.68415">
        <ele>253.44</ele>
        <time>2023-08-12T09:22:42Z</time>
      </trkpt>
      <trkpt lat="44.45924" lon="1.68404">
        <ele>250.08</ele>
        <time>2023-08-12T09:22:26Z</time>
      </trkpt>
      <trkpt lat="44.45924" lon="1.68401">
        <ele>250.08</ele>
        <time>2023-08-12T09:22:24Z</time>
      </trkpt>
      <trkpt lat="44.4593" lon="1.68379">
        <ele>249.12</ele>
        <time>2023-08-12T09:22:09Z</time>
      </trkpt>
      <trkpt lat="44.45942" lon="1.68355">
        <ele>250.56</ele>
        <time>2023-08-12T09:21:52Z</time>
      </trkpt>
      <trkpt lat="44.45949" lon="1.68342">
        <ele>251.52</ele>
        <time>2023-08-12T09:21:41Z</time>
      </trkpt>
      <trkpt lat="44.45959" lon="1.68317">
        <ele>252.48</ele>
        <time>2023-08-12T09:21:25Z</time>
      </trkpt>
      <trkpt lat="44.4597" lon="1.68294">
        <ele>252.48</ele>
        <time>2023-08-12T09:21:08Z</time>
      </trkpt>
      <trkpt lat="44.45978" lon="1.68274">
        <ele>252.48</ele>
        <time>2023-08-12T09:20:52Z</time>
      </trkpt>
      <trkpt lat="44.45986" lon="1.68249">
        <ele>252.48</ele>
        <time>2023-08-12T09:20:35Z</time>
      </trkpt>
      <trkpt lat="44.45992" lon="1.68238">
        <ele>252.48</ele>
        <time>2023-08-12T09:20:27Z</time>
      </trkpt>
      <trkpt lat="44.45998" lon="1.68227">
        <ele>252.96</ele>
        <time>2023-08-12T09:20:17Z</time>
      </trkpt>
      <trkpt lat="44.46001" lon="1.6822">
        <ele>252.96</ele>
        <time>2023-08-12T09:20:11Z</time>
      </trkpt>
      <trkpt lat="44.46005" lon="1.68197">
        <ele>254.41</ele>
        <time>2023-08-12T09:19:53Z</time>
      </trkpt>
      <trkpt lat="44.46004" lon="1.6817">
        <ele>255.37</ele>
        <time>2023-08-12T09:19:36Z</time>
      </trkpt>
      <trkpt lat="44.46004" lon="1.68169">
        <ele>255.37</ele>
        <time>2023-08-12T09:19:35Z</time>
      </trkpt>
      <trkpt lat="44.45999" lon="1.68141">
        <ele>256.81</ele>
        <time>2023-08-12T09:19:17Z</time>
      </trkpt>
      <trkpt lat="44.45993" lon="1.6812">
        <ele>256.33</ele>
        <time>2023-08-12T09:19:00Z</time>
      </trkpt>
      <trkpt lat="44.45983" lon="1.68098">
        <ele>256.81</ele>
        <time>2023-08-12T09:18:43Z</time>
      </trkpt>
      <trkpt lat="44.45972" lon="1.68082">
        <ele>254.89</ele>
        <time>2023-08-12T09:18:27Z</time>
      </trkpt>
      <trkpt lat="44.45962" lon="1.68063">
        <ele>252.96</ele>
        <time>2023-08-12T09:18:10Z</time>
      </trkpt>
      <trkpt lat="44.45953" lon="1.68045">
        <ele>252.48</ele>
        <time>2023-08-12T09:17:55Z</time>
      </trkpt>
      <trkpt lat="44.45945" lon="1.68032">
        <ele>251.04</ele>
        <time>2023-08-12T09:17:41Z</time>
      </trkpt>
      <trkpt lat="44.45935" lon="1.68018">
        <ele>250.08</ele>
        <time>2023-08-12T09:17:25Z</time>
      </trkpt>
      <trkpt lat="44.4592" lon="1.68001">
        <ele>249.12</ele>
        <time>2023-08-12T09:17:06Z</time>
      </trkpt>
      <trkpt lat="44.45911" lon="1.67988">
        <ele>248.64</ele>
        <time>2023-08-12T09:16:51Z</time>
      </trkpt>
      <trkpt lat="44.45914" lon="1.6798">
        <ele>248.64</ele>
        <time>2023-08-12T09:16:45Z</time>
      </trkpt>
      <trkpt lat="44.45932" lon="1.67978">
        <ele>248.16</ele>
        <time>2023-08-12T09:16:32Z</time>
      </trkpt>
      <trkpt lat="44.45955" lon="1.67978">
        <ele>248.16</ele>
        <time>2023-08-12T09:16:14Z</time>
      </trkpt>
      <trkpt lat="44.45971" lon="1.67979">
        <ele>248.16</ele>
        <time>2023-08-12T09:15:58Z</time>
      </trkpt>
      <trkpt lat="44.45973" lon="1.6798">
        <ele>248.16</ele>
        <time>2023-08-12T09:15:56Z</time>
      </trkpt>
      <trkpt lat="44.45985" lon="1.6798">
        <ele>248.16</ele>
        <time>2023-08-12T09:15:47Z</time>
      </trkpt>
      <trkpt lat="44.46006" lon="1.67976">
        <ele>248.16</ele>
        <time>2023-08-12T09:15:30Z</time>
      </trkpt>
      <trkpt lat="44.46021" lon="1.6797">
        <ele>248.16</ele>
        <time>2023-08-12T09:15:17Z</time>
      </trkpt>
      <trkpt lat="44.46039" lon="1.67974">
        <ele>246.72</ele>
        <time>2023-08-12T09:15:01Z</time>
      </trkpt>
      <trkpt lat="44.46059" lon="1.67962">
        <ele>246.72</ele>
        <time>2023-08-12T09:14:43Z</time>
      </trkpt>
      <trkpt lat="44.46061" lon="1.67956">
        <ele>248.64</ele>
        <time>2023-08-12T09:14:39Z</time>
      </trkpt>
      <trkpt lat="44.4606" lon="1.6795">
        <ele>248.64</ele>
        <time>2023-08-12T09:14:33Z</time>
      </trkpt>
      <trkpt lat="44.4606" lon="1.67933">
        <ele>246.72</ele>
        <time>2023-08-12T09:14:15Z</time>
      </trkpt>
      <trkpt lat="44.46067" lon="1.67933">
        <ele>246.23</ele>
        <time>2023-08-12T09:13:59Z</time>
      </trkpt>
      <trkpt lat="44.46073" lon="1.67935">
        <ele>245.27</ele>
        <time>2023-08-12T09:13:32Z</time>
      </trkpt>
      <trkpt lat="44.46087" lon="1.67941">
        <ele>244.31</ele>
        <time>2023-08-12T09:13:16Z</time>
      </trkpt>
      <trkpt lat="44.46094" lon="1.6794">
        <ele>243.83</ele>
        <time>2023-08-12T09:13:01Z</time>
      </trkpt>
      <trkpt lat="44.46108" lon="1.6794">
        <ele>242.87</ele>
        <time>2023-08-12T09:12:45Z</time>
      </trkpt>
      <trkpt lat="44.46113" lon="1.67932">
        <ele>241.43</ele>
        <time>2023-08-12T09:12:39Z</time>
      </trkpt>
      <trkpt lat="44.46114" lon="1.67927">
        <ele>241.43</ele>
        <time>2023-08-12T09:12:35Z</time>
      </trkpt>
      <trkpt lat="44.46117" lon="1.6792">
        <ele>241.43</ele>
        <time>2023-08-12T09:12:30Z</time>
      </trkpt>
      <trkpt lat="44.46123" lon="1.67911">
        <ele>241.43</ele>
        <time>2023-08-12T09:12:14Z</time>
      </trkpt>
      <trkpt lat="44.46129" lon="1.6791">
        <ele>241.43</ele>
        <time>2023-08-12T09:11:56Z</time>
      </trkpt>
      <trkpt lat="44.4614" lon="1.6791">
        <ele>242.39</ele>
        <time>2023-08-12T09:11:41Z</time>
      </trkpt>
      <trkpt lat="44.46157" lon="1.67914">
        <ele>242.87</ele>
        <time>2023-08-12T09:11:25Z</time>
      </trkpt>
      <trkpt lat="44.46162" lon="1.67916">
        <ele>242.87</ele>
        <time>2023-08-12T09:11:21Z</time>
      </trkpt>
      <trkpt lat="44.4618" lon="1.67923">
        <ele>243.35</ele>
        <time>2023-08-12T09:11:03Z</time>
      </trkpt>
      <trkpt lat="44.46195" lon="1.67932">
        <ele>244.79</ele>
        <time>2023-08-12T09:10:47Z</time>
      </trkpt>
      <trkpt lat="44.46202" lon="1.67937">
        <ele>247.2</ele>
        <time>2023-08-12T09:10:34Z</time>
      </trkpt>
      <trkpt lat="44.46216" lon="1.67951">
        <ele>248.16</ele>
        <time>2023-08-12T09:10:14Z</time>
      </trkpt>
      <trkpt lat="44.46219" lon="1.67957">
        <ele>248.16</ele>
        <time>2023-08-12T09:10:09Z</time>
      </trkpt>
      <trkpt lat="44.46229" lon="1.67967">
        <ele>248.16</ele>
        <time>2023-08-12T09:09:58Z</time>
      </trkpt>
      <trkpt lat="44.4624" lon="1.67985">
        <ele>249.12</ele>
        <time>2023-08-12T09:09:41Z</time>
      </trkpt>
      <trkpt lat="44.46243" lon="1.67988">
        <ele>249.12</ele>
        <time>2023-08-12T09:09:17Z</time>
      </trkpt>
      <trkpt lat="44.46242" lon="1.67986">
        <ele>249.12</ele>
        <time>2023-08-12T09:08:56Z</time>
      </trkpt>
      <trkpt lat="44.46245" lon="1.67987">
        <ele>247.68</ele>
        <time>2023-08-12T09:08:38Z</time>
      </trkpt>
      <trkpt lat="44.46249" lon="1.67994">
        <ele>247.68</ele>
        <time>2023-08-12T09:08:26Z</time>
      </trkpt>
      <trkpt lat="44.46249" lon="1.67994">
        <ele>247.68</ele>
        <time>2023-08-12T09:08:24Z</time>
      </trkpt>
      <trkpt lat="44.4625" lon="1.67994">
        <ele>247.68</ele>
        <time>2023-08-12T09:07:48Z</time>
      </trkpt>
      <trkpt lat="44.46249" lon="1.67994">
        <ele>247.68</ele>
        <time>2023-08-12T09:07:47Z</time>
      </trkpt>
      <trkpt lat="44.46256" lon="1.67999">
        <ele>248.64</ele>
        <time>2023-08-12T09:07:32Z</time>
      </trkpt>
      <trkpt lat="44.46268" lon="1.68013">
        <ele>248.64</ele>
        <time>2023-08-12T09:07:15Z</time>
      </trkpt>
      <trkpt lat="44.4628" lon="1.6803">
        <ele>248.64</ele>
        <time>2023-08-12T09:06:58Z</time>
      </trkpt>
      <trkpt lat="44.46293" lon="1.68045">
        <ele>247.68</ele>
        <time>2023-08-12T09:06:42Z</time>
      </trkpt>
      <trkpt lat="44.46303" lon="1.68061">
        <ele>246.72</ele>
        <time>2023-08-12T09:06:24Z</time>
      </trkpt>
      <trkpt lat="44.46307" lon="1.68065">
        <ele>246.23</ele>
        <time>2023-08-12T09:06:19Z</time>
      </trkpt>
      <trkpt lat="44.46318" lon="1.68077">
        <ele>245.27</ele>
        <time>2023-08-12T09:06:03Z</time>
      </trkpt>
      <trkpt lat="44.46322" lon="1.68095">
        <ele>244.31</ele>
        <time>2023-08-12T09:05:46Z</time>
      </trkpt>
      <trkpt lat="44.46322" lon="1.68099">
        <ele>244.31</ele>
        <time>2023-08-12T09:05:43Z</time>
      </trkpt>
      <trkpt lat="44.46326" lon="1.68119">
        <ele>243.35</ele>
        <time>2023-08-12T09:05:29Z</time>
      </trkpt>
      <trkpt lat="44.46329" lon="1.68132">
        <ele>243.35</ele>
        <time>2023-08-12T09:05:19Z</time>
      </trkpt>
      <trkpt lat="44.46332" lon="1.68142">
        <ele>242.87</ele>
        <time>2023-08-12T09:05:11Z</time>
      </trkpt>
      <trkpt lat="44.46336" lon="1.68158">
        <ele>241.43</ele>
        <time>2023-08-12T09:04:57Z</time>
      </trkpt>
      <trkpt lat="44.46333" lon="1.68174">
        <ele>241.43</ele>
        <time>2023-08-12T09:04:42Z</time>
      </trkpt>
      <trkpt lat="44.46335" lon="1.68185">
        <ele>241.43</ele>
        <time>2023-08-12T09:04:27Z</time>
      </trkpt>
      <trkpt lat="44.46334" lon="1.68185">
        <ele>241.43</ele>
        <time>2023-08-12T09:04:09Z</time>
      </trkpt>
      <trkpt lat="44.46333" lon="1.68186">
        <ele>241.43</ele>
        <time>2023-08-12T09:03:46Z</time>
      </trkpt>
      <trkpt lat="44.46333" lon="1.68186">
        <ele>241.43</ele>
        <time>2023-08-12T09:03:23Z</time>
      </trkpt>
      <trkpt lat="44.46333" lon="1.68185">
        <ele>241.43</ele>
        <time>2023-08-12T09:02:58Z</time>
      </trkpt>
      <trkpt lat="44.46332" lon="1.68188">
        <ele>241.43</ele>
        <time>2023-08-12T09:02:40Z</time>
      </trkpt>
      <trkpt lat="44.46333" lon="1.68186">
        <ele>241.43</ele>
        <time>2023-08-12T09:02:25Z</time>
      </trkpt>
      <trkpt lat="44.46334" lon="1.68186">
        <ele>241.43</ele>
        <time>2023-08-12T09:02:01Z</time>
      </trkpt>
      <trkpt lat="44.46335" lon="1.68185">
        <ele>240.95</ele>
        <time>2023-08-12T09:01:34Z</time>
      </trkpt>
      <trkpt lat="44.46334" lon="1.68186">
        <ele>241.43</ele>
        <time>2023-08-12T09:01:21Z</time>
      </trkpt>
      <trkpt lat="44.46335" lon="1.68189">
        <ele>240.95</ele>
        <time>2023-08-12T09:00:54Z</time>
      </trkpt>
      <trkpt lat="44.46334" lon="1.68177">
        <ele>240.95</ele>
        <time>2023-08-12T09:00:36Z</time>
      </trkpt>
      <trkpt lat="44.46338" lon="1.68166">
        <ele>241.43</ele>
        <time>2023-08-12T09:00:23Z</time>
      </trkpt>
      <trkpt lat="44.46336" lon="1.68158">
        <ele>241.43</ele>
        <time>2023-08-12T09:00:16Z</time>
      </trkpt>
      <trkpt lat="44.46331" lon="1.68136">
        <ele>242.39</ele>
        <time>2023-08-12T09:00:00Z</time>
      </trkpt>
      <trkpt lat="44.46325" lon="1.68113">
        <ele>242.87</ele>
        <time>2023-08-12T08:59:43Z</time>
      </trkpt>
      <trkpt lat="44.46325" lon="1.68112">
        <ele>242.87</ele>
        <time>2023-08-12T08:59:42Z</time>
      </trkpt>
      <trkpt lat="44.46323" lon="1.68089">
        <ele>243.83</ele>
        <time>2023-08-12T08:59:26Z</time>
      </trkpt>
      <trkpt lat="44.46318" lon="1.68075">
        <ele>244.79</ele>
        <time>2023-08-12T08:59:13Z</time>
      </trkpt>
      <trkpt lat="44.46314" lon="1.68072">
        <ele>245.27</ele>
        <time>2023-08-12T08:59:08Z</time>
      </trkpt>
      <trkpt lat="44.46299" lon="1.68059">
        <ele>246.23</ele>
        <time>2023-08-12T08:58:50Z</time>
      </trkpt>
      <trkpt lat="44.46296" lon="1.68051">
        <ele>246.23</ele>
        <time>2023-08-12T08:58:43Z</time>
      </trkpt>
      <trkpt lat="44.46283" lon="1.68037">
        <ele>246.23</ele>
        <time>2023-08-12T08:58:27Z</time>
      </trkpt>
      <trkpt lat="44.46281" lon="1.68034">
        <ele>246.23</ele>
        <time>2023-08-12T08:58:24Z</time>
      </trkpt>
      <trkpt lat="44.46272" lon="1.68017">
        <ele>247.68</ele>
        <time>2023-08-12T08:58:09Z</time>
      </trkpt>
      <trkpt lat="44.46255" lon="1.67998">
        <ele>247.68</ele>
        <time>2023-08-12T08:57:50Z</time>
      </trkpt>
      <trkpt lat="44.46242" lon="1.67981">
        <ele>247.2</ele>
        <time>2023-08-12T08:57:35Z</time>
      </trkpt>
      <trkpt lat="44.46226" lon="1.67961">
        <ele>246.72</ele>
        <time>2023-08-12T08:57:17Z</time>
      </trkpt>
      <trkpt lat="44.46212" lon="1.67945">
        <ele>246.72</ele>
        <time>2023-08-12T08:57:01Z</time>
      </trkpt>
      <trkpt lat="44.462" lon="1.67936">
        <ele>245.75</ele>
        <time>2023-08-12T08:56:49Z</time>
      </trkpt>
      <trkpt lat="44.46183" lon="1.6793">
        <ele>242.87</ele>
        <time>2023-08-12T08:56:32Z</time>
      </trkpt>
      <trkpt lat="44.46165" lon="1.67922">
        <ele>241.91</ele>
        <time>2023-08-12T08:56:16Z</time>
      </trkpt>
      <trkpt lat="44.46148" lon="1.67914">
        <ele>241.91</ele>
        <time>2023-08-12T08:55:58Z</time>
      </trkpt>
      <trkpt lat="44.4614" lon="1.67911">
        <ele>241.91</ele>
        <time>2023-08-12T08:55:46Z</time>
      </trkpt>
      <trkpt lat="44.46132" lon="1.67909">
        <ele>241.43</ele>
        <time>2023-08-12T08:55:21Z</time>
      </trkpt>
      <trkpt lat="44.46125" lon="1.67908">
        <ele>240.47</ele>
        <time>2023-08-12T08:55:07Z</time>
      </trkpt>
      <trkpt lat="44.4612" lon="1.67911">
        <ele>240.47</ele>
        <time>2023-08-12T08:54:54Z</time>
      </trkpt>
      <trkpt lat="44.46119" lon="1.67913">
        <ele>240.95</ele>
        <time>2023-08-12T08:54:38Z</time>
      </trkpt>
      <trkpt lat="44.46117" lon="1.67919">
        <ele>240.95</ele>
        <time>2023-08-12T08:54:25Z</time>
      </trkpt>
      <trkpt lat="44.46111" lon="1.67939">
        <ele>241.43</ele>
        <time>2023-08-12T08:54:08Z</time>
      </trkpt>
      <trkpt lat="44.46098" lon="1.67946">
        <ele>243.35</ele>
        <time>2023-08-12T08:53:54Z</time>
      </trkpt>
      <trkpt lat="44.4608" lon="1.67941">
        <ele>244.79</ele>
        <time>2023-08-12T08:53:39Z</time>
      </trkpt>
      <trkpt lat="44.46064" lon="1.67935">
        <ele>245.75</ele>
        <time>2023-08-12T08:53:23Z</time>
      </trkpt>
      <trkpt lat="44.4606" lon="1.67936">
        <ele>246.72</ele>
        <time>2023-08-12T08:53:13Z</time>
      </trkpt>
      <trkpt lat="44.46059" lon="1.67953">
        <ele>248.16</ele>
        <time>2023-08-12T08:52:59Z</time>
      </trkpt>
      <trkpt lat="44.4606" lon="1.67961">
        <ele>246.72</ele>
        <time>2023-08-12T08:52:53Z</time>
      </trkpt>
      <trkpt lat="44.4606" lon="1.67966">
        <ele>246.72</ele>
        <time>2023-08-12T08:52:49Z</time>
      </trkpt>
      <trkpt lat="44.46058" lon="1.6797">
        <ele>246.72</ele>
        <time>2023-08-12T08:52:46Z</time>
      </trkpt>
      <trkpt lat="44.46043" lon="1.67976">
        <ele>246.72</ele>
        <time>2023-08-12T08:52:30Z</time>
      </trkpt>
      <trkpt lat="44.46043" lon="1.67976">
        <ele>246.72</ele>
        <time>2023-08-12T08:52:29Z</time>
      </trkpt>
      <trkpt lat="44.4603" lon="1.67973">
        <ele>247.68</ele>
        <time>2023-08-12T08:52:14Z</time>
      </trkpt>
      <trkpt lat="44.46023" lon="1.67972">
        <ele>248.64</ele>
        <time>2023-08-12T08:52:07Z</time>
      </trkpt>
      <trkpt lat="44.46012" lon="1.67972">
        <ele>247.68</ele>
        <time>2023-08-12T08:51:55Z</time>
      </trkpt>
      <trkpt lat="44.46001" lon="1.67976">
        <ele>247.68</ele>
        <time>2023-08-12T08:51:40Z</time>
      </trkpt>
      <trkpt lat="44.45984" lon="1.67979">
        <ele>247.68</ele>
        <time>2023-08-12T08:51:24Z</time>
      </trkpt>
      <trkpt lat="44.45961" lon="1.67979">
        <ele>247.68</ele>
        <time>2023-08-12T08:51:08Z</time>
      </trkpt>
      <trkpt lat="44.45943" lon="1.67977">
        <ele>247.68</ele>
        <time>2023-08-12T08:50:51Z</time>
      </trkpt>
      <trkpt lat="44.4593" lon="1.67976">
        <ele>248.16</ele>
        <time>2023-08-12T08:50:37Z</time>
      </trkpt>
      <trkpt lat="44.45919" lon="1.6798">
        <ele>248.16</ele>
        <time>2023-08-12T08:50:23Z</time>
      </trkpt>
      <trkpt lat="44.45918" lon="1.6798">
        <ele>248.16</ele>
        <time>2023-08-12T08:50:15Z</time>
      </trkpt>
      <trkpt lat="44.45913" lon="1.67985">
        <ele>248.64</ele>
        <time>2023-08-12T08:50:02Z</time>
      </trkpt>
      <trkpt lat="44.45929" lon="1.68007">
        <ele>249.6</ele>
        <time>2023-08-12T08:49:42Z</time>
      </trkpt>
      <trkpt lat="44.45942" lon="1.68027">
        <ele>251.52</ele>
        <time>2023-08-12T08:49:25Z</time>
      </trkpt>
      <trkpt lat="44.4596" lon="1.68054">
        <ele>253.93</ele>
        <time>2023-08-12T08:49:05Z</time>
      </trkpt>
      <trkpt lat="44.4597" lon="1.68077">
        <ele>255.85</ele>
        <time>2023-08-12T08:48:48Z</time>
      </trkpt>
      <trkpt lat="44.45973" lon="1.68084">
        <ele>256.33</ele>
        <time>2023-08-12T08:48:33Z</time>
      </trkpt>
      <trkpt lat="44.45975" lon="1.6809">
        <ele>256.33</ele>
        <time>2023-08-12T08:48:17Z</time>
      </trkpt>
      <trkpt lat="44.45978" lon="1.68096">
        <ele>257.29</ele>
        <time>2023-08-12T08:48:04Z</time>
      </trkpt>
      <trkpt lat="44.45979" lon="1.68107">
        <ele>258.25</ele>
        <time>2023-08-12T08:47:48Z</time>
      </trkpt>
      <trkpt lat="44.45977" lon="1.68122">
        <ele>259.69</ele>
        <time>2023-08-12T08:47:39Z</time>
      </trkpt>
      <trkpt lat="44.45975" lon="1.6813">
        <ele>261.14</ele>
        <time>2023-08-12T08:47:33Z</time>
      </trkpt>
      <trkpt lat="44.45966" lon="1.68147">
        <ele>263.06</ele>
        <time>2023-08-12T08:47:17Z</time>
      </trkpt>
      <trkpt lat="44.4596" lon="1.68166">
        <ele>264.98</ele>
        <time>2023-08-12T08:47:01Z</time>
      </trkpt>
      <trkpt lat="44.45953" lon="1.68182">
        <ele>267.38</ele>
        <time>2023-08-12T08:46:45Z</time>
      </trkpt>
      <trkpt lat="44.45946" lon="1.68197">
        <ele>269.31</ele>
        <time>2023-08-12T08:46:29Z</time>
      </trkpt>
      <trkpt lat="44.45938" lon="1.68208">
        <ele>269.79</ele>
        <time>2023-08-12T08:46:15Z</time>
      </trkpt>
      <trkpt lat="44.45933" lon="1.68216">
        <ele>270.75</ele>
        <time>2023-08-12T08:46:00Z</time>
      </trkpt>
      <trkpt lat="44.45927" lon="1.6822">
        <ele>271.71</ele>
        <time>2023-08-12T08:45:46Z</time>
      </trkpt>
      <trkpt lat="44.45916" lon="1.68229">
        <ele>273.63</ele>
        <time>2023-08-12T08:45:31Z</time>
      </trkpt>
      <trkpt lat="44.45904" lon="1.68233">
        <ele>275.07</ele>
        <time>2023-08-12T08:45:16Z</time>
      </trkpt>
      <trkpt lat="44.45887" lon="1.68235">
        <ele>278.92</ele>
        <time>2023-08-12T08:44:59Z</time>
      </trkpt>
      <trkpt lat="44.4587" lon="1.68228">
        <ele>281.8</ele>
        <time>2023-08-12T08:44:44Z</time>
      </trkpt>
      <trkpt lat="44.45848" lon="1.68206">
        <ele>284.21</ele>
        <time>2023-08-12T08:44:24Z</time>
      </trkpt>
      <trkpt lat="44.45828" lon="1.68191">
        <ele>286.13</ele>
        <time>2023-08-12T08:44:07Z</time>
      </trkpt>
      <trkpt lat="44.45805" lon="1.68174">
        <ele>288.53</ele>
        <time>2023-08-12T08:43:46Z</time>
      </trkpt>
      <trkpt lat="44.45783" lon="1.68159">
        <ele>290.46</ele>
        <time>2023-08-12T08:43:29Z</time>
      </trkpt>
      <trkpt lat="44.45775" lon="1.68153">
        <ele>292.38</ele>
        <time>2023-08-12T08:43:15Z</time>
      </trkpt>
      <trkpt lat="44.45775" lon="1.68155">
        <ele>292.38</ele>
        <time>2023-08-12T08:42:59Z</time>
      </trkpt>
      <trkpt lat="44.45776" lon="1.68155">
        <ele>290.46</ele>
        <time>2023-08-12T08:42:50Z</time>
      </trkpt>
      <trkpt lat="44.45776" lon="1.68156">
        <ele>291.9</ele>
        <time>2023-08-12T08:42:28Z</time>
      </trkpt>
      <trkpt lat="44.45763" lon="1.68144">
        <ele>293.82</ele>
        <time>2023-08-12T08:42:13Z</time>
      </trkpt>
      <trkpt lat="44.45756" lon="1.68139">
        <ele>293.82</ele>
        <time>2023-08-12T08:42:03Z</time>
      </trkpt>
      <trkpt lat="44.45751" lon="1.68137">
        <ele>294.78</ele>
        <time>2023-08-12T08:41:47Z</time>
      </trkpt>
      <trkpt lat="44.45749" lon="1.68137">
        <ele>295.26</ele>
        <time>2023-08-12T08:41:44Z</time>
      </trkpt>
      <trkpt lat="44.45749" lon="1.68137">
        <ele>295.26</ele>
        <time>2023-08-12T08:41:43Z</time>
      </trkpt>
      <trkpt lat="44.45745" lon="1.68133">
        <ele>295.74</ele>
        <time>2023-08-12T08:41:29Z</time>
      </trkpt>
      <trkpt lat="44.45738" lon="1.68132">
        <ele>296.7</ele>
        <time>2023-08-12T08:41:21Z</time>
      </trkpt>
      <trkpt lat="44.45727" lon="1.68132">
        <ele>298.15</ele>
        <time>2023-08-12T08:41:08Z</time>
      </trkpt>
      <trkpt lat="44.45715" lon="1.68125">
        <ele>300.07</ele>
        <time>2023-08-12T08:40:52Z</time>
      </trkpt>
      <trkpt lat="44.45705" lon="1.68122">
        <ele>301.03</ele>
        <time>2023-08-12T08:40:40Z</time>
      </trkpt>
      <trkpt lat="44.45691" lon="1.68118">
        <ele>303.43</ele>
        <time>2023-08-12T08:40:22Z</time>
      </trkpt>
      <trkpt lat="44.45683" lon="1.68115">
        <ele>304.88</ele>
        <time>2023-08-12T08:40:10Z</time>
      </trkpt>
      <trkpt lat="44.45669" lon="1.68109">
        <ele>306.8</ele>
        <time>2023-08-12T08:39:54Z</time>
      </trkpt>
      <trkpt lat="44.45658" lon="1.68103">
        <ele>308.24</ele>
        <time>2023-08-12T08:39:40Z</time>
      </trkpt>
      <trkpt lat="44.45652" lon="1.68099">
        <ele>308.24</ele>
        <time>2023-08-12T08:39:26Z</time>
      </trkpt>
      <trkpt lat="44.45651" lon="1.68102">
        <ele>308.24</ele>
        <time>2023-08-12T08:39:01Z</time>
      </trkpt>
      <trkpt lat="44.45648" lon="1.68099">
        <ele>308.72</ele>
        <time>2023-08-12T08:38:44Z</time>
      </trkpt>
      <trkpt lat="44.45649" lon="1.681">
        <ele>309.2</ele>
        <time>2023-08-12T08:38:25Z</time>
      </trkpt>
      <trkpt lat="44.45641" lon="1.68099">
        <ele>309.68</ele>
        <time>2023-08-12T08:38:11Z</time>
      </trkpt>
      <trkpt lat="44.45632" lon="1.68096">
        <ele>310.64</ele>
        <time>2023-08-12T08:38:01Z</time>
      </trkpt>
      <trkpt lat="44.45618" lon="1.68096">
        <ele>313.05</ele>
        <time>2023-08-12T08:37:44Z</time>
      </trkpt>
      <trkpt lat="44.45611" lon="1.68098">
        <ele>314.01</ele>
        <time>2023-08-12T08:37:32Z</time>
      </trkpt>
      <trkpt lat="44.45598" lon="1.68109">
        <ele>316.41</ele>
        <time>2023-08-12T08:37:15Z</time>
      </trkpt>
      <trkpt lat="44.45586" lon="1.68118">
        <ele>318.81</ele>
        <time>2023-08-12T08:36:58Z</time>
      </trkpt>
      <trkpt lat="44.45571" lon="1.6812">
        <ele>320.74</ele>
        <time>2023-08-12T08:36:40Z</time>
      </trkpt>
      <trkpt lat="44.4556" lon="1.68121">
        <ele>321.22</ele>
        <time>2023-08-12T08:36:25Z</time>
      </trkpt>
      <trkpt lat="44.45543" lon="1.68119">
        <ele>322.18</ele>
        <time>2023-08-12T08:36:09Z</time>
      </trkpt>
      <trkpt lat="44.45523" lon="1.68113">
        <ele>323.14</ele>
        <time>2023-08-12T08:35:50Z</time>
      </trkpt>
      <trkpt lat="44.45508" lon="1.68111">
        <ele>323.14</ele>
        <time>2023-08-12T08:35:34Z</time>
      </trkpt>
      <trkpt lat="44.45495" lon="1.68114">
        <ele>323.62</ele>
        <time>2023-08-12T08:35:18Z</time>
      </trkpt>
      <trkpt lat="44.45476" lon="1.68108">
        <ele>324.1</ele>
        <time>2023-08-12T08:35:00Z</time>
      </trkpt>
      <trkpt lat="44.45463" lon="1.68103">
        <ele>324.58</ele>
        <time>2023-08-12T08:34:45Z</time>
      </trkpt>
      <trkpt lat="44.45455" lon="1.68098">
        <ele>325.54</ele>
        <time>2023-08-12T08:34:28Z</time>
      </trkpt>
      <trkpt lat="44.45441" lon="1.68089">
        <ele>326.99</ele>
        <time>2023-08-12T08:34:10Z</time>
      </trkpt>
      <trkpt lat="44.45439" lon="1.68095">
        <ele>326.99</ele>
        <time>2023-08-12T08:33:58Z</time>
      </trkpt>
      <trkpt lat="44.45432" lon="1.68082">
        <ele>327.95</ele>
        <time>2023-08-12T08:33:43Z</time>
      </trkpt>
      <trkpt lat="44.45416" lon="1.68077">
        <ele>329.87</ele>
        <time>2023-08-12T08:33:25Z</time>
      </trkpt>
      <trkpt lat="44.45406" lon="1.68079">
        <ele>330.83</ele>
        <time>2023-08-12T08:33:13Z</time>
      </trkpt>
      <trkpt lat="44.4539" lon="1.68083">
        <ele>332.75</ele>
        <time>2023-08-12T08:32:58Z</time>
      </trkpt>
      <trkpt lat="44.45376" lon="1.68085">
        <ele>334.68</ele>
        <time>2023-08-12T08:32:42Z</time>
      </trkpt>
      <trkpt lat="44.45363" lon="1.68095">
        <ele>336.12</ele>
        <time>2023-08-12T08:32:27Z</time>
      </trkpt>
      <trkpt lat="44.45348" lon="1.68109">
        <ele>337.08</ele>
        <time>2023-08-12T08:32:10Z</time>
      </trkpt>
      <trkpt lat="44.45331" lon="1.68127">
        <ele>338.04</ele>
        <time>2023-08-12T08:31:51Z</time>
      </trkpt>
      <trkpt lat="44.4532" lon="1.68139">
        <ele>339</ele>
        <time>2023-08-12T08:31:35Z</time>
      </trkpt>
      <trkpt lat="44.45304" lon="1.68146">
        <ele>340.92</ele>
        <time>2023-08-12T08:31:19Z</time>
      </trkpt>
      <trkpt lat="44.45287" lon="1.6815">
        <ele>340.92</ele>
        <time>2023-08-12T08:31:02Z</time>
      </trkpt>
      <trkpt lat="44.45277" lon="1.68155">
        <ele>340.92</ele>
        <time>2023-08-12T08:30:50Z</time>
      </trkpt>
      <trkpt lat="44.45272" lon="1.68156">
        <ele>340.44</ele>
        <time>2023-08-12T08:30:45Z</time>
      </trkpt>
      <trkpt lat="44.45252" lon="1.68145">
        <ele>340.44</ele>
        <time>2023-08-12T08:30:25Z</time>
      </trkpt>
      <trkpt lat="44.45239" lon="1.68133">
        <ele>340.44</ele>
        <time>2023-08-12T08:30:08Z</time>
      </trkpt>
      <trkpt lat="44.45227" lon="1.68124">
        <ele>340.44</ele>
        <time>2023-08-12T08:29:57Z</time>
      </trkpt>
      <trkpt lat="44.45227" lon="1.68124">
        <ele>340.44</ele>
        <time>2023-08-12T08:29:56Z</time>
      </trkpt>
      <trkpt lat="44.4521" lon="1.68107">
        <ele>340.44</ele>
        <time>2023-08-12T08:29:36Z</time>
      </trkpt>
      <trkpt lat="44.45199" lon="1.68091">
        <ele>340.44</ele>
        <time>2023-08-12T08:29:19Z</time>
      </trkpt>
      <trkpt lat="44.45205" lon="1.68072">
        <ele>339</ele>
        <time>2023-08-12T08:29:04Z</time>
      </trkpt>
      <trkpt lat="44.45199" lon="1.68086">
        <ele>339.96</ele>
        <time>2023-08-12T08:28:46Z</time>
      </trkpt>
      <trkpt lat="44.45194" lon="1.68091">
        <ele>341.41</ele>
        <time>2023-08-12T08:28:29Z</time>
      </trkpt>
      <trkpt lat="44.45178" lon="1.68078">
        <ele>341.41</ele>
        <time>2023-08-12T08:28:11Z</time>
      </trkpt>
      <trkpt lat="44.45164" lon="1.68065">
        <ele>341.41</ele>
        <time>2023-08-12T08:27:54Z</time>
      </trkpt>
      <trkpt lat="44.45154" lon="1.68053">
        <ele>341.41</ele>
        <time>2023-08-12T08:27:39Z</time>
      </trkpt>
      <trkpt lat="44.45147" lon="1.6804">
        <ele>341.41</ele>
        <time>2023-08-12T08:27:27Z</time>
      </trkpt>
      <trkpt lat="44.45141" lon="1.68023">
        <ele>340.92</ele>
        <time>2023-08-12T08:27:12Z</time>
      </trkpt>
      <trkpt lat="44.45136" lon="1.68017">
        <ele>340.44</ele>
        <time>2023-08-12T08:26:50Z</time>
      </trkpt>
      <trkpt lat="44.45137" lon="1.6801">
        <ele>339</ele>
        <time>2023-08-12T08:26:39Z</time>
      </trkpt>
      <trkpt lat="44.45136" lon="1.67996">
        <ele>338.52</ele>
        <time>2023-08-12T08:26:25Z</time>
      </trkpt>
      <trkpt lat="44.4513" lon="1.67977">
        <ele>338.04</ele>
        <time>2023-08-12T08:26:11Z</time>
      </trkpt>
      <trkpt lat="44.45125" lon="1.67964">
        <ele>337.08</ele>
        <time>2023-08-12T08:25:56Z</time>
      </trkpt>
      <trkpt lat="44.45122" lon="1.67953">
        <ele>334.68</ele>
        <time>2023-08-12T08:25:42Z</time>
      </trkpt>
      <trkpt lat="44.45126" lon="1.67938">
        <ele>331.79</ele>
        <time>2023-08-12T08:25:27Z</time>
      </trkpt>
      <trkpt lat="44.45132" lon="1.67929">
        <ele>330.35</ele>
        <time>2023-08-12T08:25:14Z</time>
      </trkpt>
      <trkpt lat="44.45141" lon="1.67923">
        <ele>328.91</ele>
        <time>2023-08-12T08:24:59Z</time>
      </trkpt>
      <trkpt lat="44.4515" lon="1.67896">
        <ele>327.47</ele>
        <time>2023-08-12T08:24:42Z</time>
      </trkpt>
      <trkpt lat="44.45159" lon="1.67884">
        <ele>326.5</ele>
        <time>2023-08-12T08:24:27Z</time>
      </trkpt>
      <trkpt lat="44.45166" lon="1.67869">
        <ele>325.54</ele>
        <time>2023-08-12T08:24:14Z</time>
      </trkpt>
      <trkpt lat="44.45172" lon="1.67861">
        <ele>324.58</ele>
        <time>2023-08-12T08:24:01Z</time>
      </trkpt>
      <trkpt lat="44.45182" lon="1.67839">
        <ele>323.14</ele>
        <time>2023-08-12T08:23:45Z</time>
      </trkpt>
      <trkpt lat="44.45182" lon="1.6782">
        <ele>324.58</ele>
        <time>2023-08-12T08:23:29Z</time>
      </trkpt>
      <trkpt lat="44.45178" lon="1.67799">
        <ele>323.14</ele>
        <time>2023-08-12T08:23:11Z</time>
      </trkpt>
      <trkpt lat="44.45177" lon="1.67786">
        <ele>322.18</ele>
        <time>2023-08-12T08:22:57Z</time>
      </trkpt>
      <trkpt lat="44.45174" lon="1.67769">
        <ele>319.78</ele>
        <time>2023-08-12T08:22:40Z</time>
      </trkpt>
      <trkpt lat="44.45171" lon="1.67757">
        <ele>317.85</ele>
        <time>2023-08-12T08:22:23Z</time>
      </trkpt>
      <trkpt lat="44.45161" lon="1.67747">
        <ele>316.89</ele>
        <time>2023-08-12T08:22:08Z</time>
      </trkpt>
      <trkpt lat="44.45154" lon="1.67733">
        <ele>314.49</ele>
        <time>2023-08-12T08:21:53Z</time>
      </trkpt>
      <trkpt lat="44.45159" lon="1.67713">
        <ele>312.09</ele>
        <time>2023-08-12T08:21:39Z</time>
      </trkpt>
      <trkpt lat="44.45163" lon="1.67694">
        <ele>312.09</ele>
        <time>2023-08-12T08:21:22Z</time>
      </trkpt>
      <trkpt lat="44.45162" lon="1.67681">
        <ele>312.09</ele>
        <time>2023-08-12T08:21:10Z</time>
      </trkpt>
      <trkpt lat="44.45164" lon="1.67664">
        <ele>312.57</ele>
        <time>2023-08-12T08:20:55Z</time>
      </trkpt>
      <trkpt lat="44.45172" lon="1.67648">
        <ele>313.05</ele>
        <time>2023-08-12T08:20:39Z</time>
      </trkpt>
      <trkpt lat="44.4518" lon="1.67623">
        <ele>314.49</ele>
        <time>2023-08-12T08:20:22Z</time>
      </trkpt>
      <trkpt lat="44.45186" lon="1.676">
        <ele>315.93</ele>
        <time>2023-08-12T08:20:07Z</time>
      </trkpt>
      <trkpt lat="44.4519" lon="1.67571">
        <ele>317.85</ele>
        <time>2023-08-12T08:19:49Z</time>
      </trkpt>
      <trkpt lat="44.45189" lon="1.67562">
        <ele>318.33</ele>
        <time>2023-08-12T08:19:44Z</time>
      </trkpt>
      <trkpt lat="44.45187" lon="1.67534">
        <ele>320.26</ele>
        <time>2023-08-12T08:19:27Z</time>
      </trkpt>
      <trkpt lat="44.45183" lon="1.67513">
        <ele>321.22</ele>
        <time>2023-08-12T08:19:12Z</time>
      </trkpt>
      <trkpt lat="44.4518" lon="1.67497">
        <ele>322.18</ele>
        <time>2023-08-12T08:18:59Z</time>
      </trkpt>
      <trkpt lat="44.45177" lon="1.67487">
        <ele>322.66</ele>
        <time>2023-08-12T08:18:42Z</time>
      </trkpt>
      <trkpt lat="44.45161" lon="1.6746">
        <ele>324.58</ele>
        <time>2023-08-12T08:18:22Z</time>
      </trkpt>
      <trkpt lat="44.45158" lon="1.67459">
        <ele>325.06</ele>
        <time>2023-08-12T08:18:20Z</time>
      </trkpt>
      <trkpt lat="44.45136" lon="1.67452">
        <ele>326.02</ele>
        <time>2023-08-12T08:18:03Z</time>
      </trkpt>
      <trkpt lat="44.45116" lon="1.67456">
        <ele>326.02</ele>
        <time>2023-08-12T08:17:47Z</time>
      </trkpt>
      <trkpt lat="44.451" lon="1.6746">
        <ele>326.02</ele>
        <time>2023-08-12T08:17:32Z</time>
      </trkpt>
      <trkpt lat="44.45094" lon="1.67464">
        <ele>326.02</ele>
        <time>2023-08-12T08:17:25Z</time>
      </trkpt>
      <trkpt lat="44.45078" lon="1.67474">
        <ele>326.02</ele>
        <time>2023-08-12T08:17:12Z</time>
      </trkpt>
      <trkpt lat="44.45063" lon="1.67483">
        <ele>326.02</ele>
        <time>2023-08-12T08:16:58Z</time>
      </trkpt>
      <trkpt lat="44.45051" lon="1.67493">
        <ele>326.5</ele>
        <time>2023-08-12T08:16:44Z</time>
      </trkpt>
      <trkpt lat="44.45038" lon="1.67506">
        <ele>326.5</ele>
        <time>2023-08-12T08:16:28Z</time>
      </trkpt>
      <trkpt lat="44.45021" lon="1.67533">
        <ele>327.47</ele>
        <time>2023-08-12T08:16:09Z</time>
      </trkpt>
      <trkpt lat="44.45009" lon="1.67547">
        <ele>327.47</ele>
        <time>2023-08-12T08:15:56Z</time>
      </trkpt>
      <trkpt lat="44.44993" lon="1.67557">
        <ele>327.47</ele>
        <time>2023-08-12T08:15:42Z</time>
      </trkpt>
      <trkpt lat="44.44976" lon="1.67561">
        <ele>327.47</ele>
        <time>2023-08-12T08:15:26Z</time>
      </trkpt>
      <trkpt lat="44.4496" lon="1.6756">
        <ele>327.47</ele>
        <time>2023-08-12T08:15:11Z</time>
      </trkpt>
      <trkpt lat="44.44956" lon="1.67559">
        <ele>327.47</ele>
        <time>2023-08-12T08:15:05Z</time>
      </trkpt>
      <trkpt lat="44.44944" lon="1.67557">
        <ele>327.47</ele>
        <time>2023-08-12T08:14:51Z</time>
      </trkpt>
      <trkpt lat="44.44929" lon="1.67549">
        <ele>327.47</ele>
        <time>2023-08-12T08:14:34Z</time>
      </trkpt>
      <trkpt lat="44.44924" lon="1.67543">
        <ele>327.47</ele>
        <time>2023-08-12T08:14:28Z</time>
      </trkpt>
      <trkpt lat="44.44924" lon="1.67542">
        <ele>327.47</ele>
        <time>2023-08-12T08:14:27Z</time>
      </trkpt>
      <trkpt lat="44.44915" lon="1.67519">
        <ele>327.47</ele>
        <time>2023-08-12T08:14:12Z</time>
      </trkpt>
      <trkpt lat="44.44912" lon="1.67501">
        <ele>327.47</ele>
        <time>2023-08-12T08:13:59Z</time>
      </trkpt>
      <trkpt lat="44.44908" lon="1.67478">
        <ele>326.99</ele>
        <time>2023-08-12T08:13:42Z</time>
      </trkpt>
      <trkpt lat="44.44895" lon="1.67458">
        <ele>326.99</ele>
        <time>2023-08-12T08:13:25Z</time>
      </trkpt>
      <trkpt lat="44.44879" lon="1.67454">
        <ele>326.99</ele>
        <time>2023-08-12T08:13:11Z</time>
      </trkpt>
      <trkpt lat="44.44865" lon="1.67456">
        <ele>326.5</ele>
        <time>2023-08-12T08:12:56Z</time>
      </trkpt>
      <trkpt lat="44.44851" lon="1.67458">
        <ele>326.5</ele>
        <time>2023-08-12T08:12:40Z</time>
      </trkpt>
      <trkpt lat="44.44841" lon="1.67458">
        <ele>326.5</ele>
        <time>2023-08-12T08:12:25Z</time>
      </trkpt>
      <trkpt lat="44.44829" lon="1.67459">
        <ele>326.5</ele>
        <time>2023-08-12T08:12:08Z</time>
      </trkpt>
      <trkpt lat="44.44806" lon="1.67459">
        <ele>326.5</ele>
        <time>2023-08-12T08:11:47Z</time>
      </trkpt>
      <trkpt lat="44.44786" lon="1.67462">
        <ele>326.02</ele>
        <time>2023-08-12T08:11:30Z</time>
      </trkpt>
      <trkpt lat="44.44763" lon="1.67461">
        <ele>326.02</ele>
        <time>2023-08-12T08:11:10Z</time>
      </trkpt>
      <trkpt lat="44.44753" lon="1.67453">
        <ele>326.02</ele>
        <time>2023-08-12T08:10:59Z</time>
      </trkpt>
      <trkpt lat="44.44736" lon="1.67439">
        <ele>325.54</ele>
        <time>2023-08-12T08:10:42Z</time>
      </trkpt>
      <trkpt lat="44.44732" lon="1.67436">
        <ele>325.54</ele>
        <time>2023-08-12T08:10:39Z</time>
      </trkpt>
      <trkpt lat="44.44719" lon="1.67429">
        <ele>325.54</ele>
        <time>2023-08-12T08:10:25Z</time>
      </trkpt>
      <trkpt lat="44.44705" lon="1.67427">
        <ele>325.54</ele>
        <time>2023-08-12T08:10:10Z</time>
      </trkpt>
      <trkpt lat="44.44688" lon="1.67431">
        <ele>325.54</ele>
        <time>2023-08-12T08:09:55Z</time>
      </trkpt>
      <trkpt lat="44.44672" lon="1.67441">
        <ele>325.06</ele>
        <time>2023-08-12T08:09:34Z</time>
      </trkpt>
      <trkpt lat="44.44659" lon="1.67451">
        <ele>325.06</ele>
        <time>2023-08-12T08:09:18Z</time>
      </trkpt>
      <trkpt lat="44.44646" lon="1.67459">
        <ele>325.06</ele>
        <time>2023-08-12T08:09:04Z</time>
      </trkpt>
      <trkpt lat="44.44635" lon="1.67465">
        <ele>325.06</ele>
        <time>2023-08-12T08:08:49Z</time>
      </trkpt>
      <trkpt lat="44.44621" lon="1.67473">
        <ele>325.06</ele>
        <time>2023-08-12T08:08:33Z</time>
      </trkpt>
      <trkpt lat="44.44606" lon="1.67482">
        <ele>325.06</ele>
        <time>2023-08-12T08:08:18Z</time>
      </trkpt>
      <trkpt lat="44.44588" lon="1.67497">
        <ele>325.06</ele>
        <time>2023-08-12T08:08:02Z</time>
      </trkpt>
      <trkpt lat="44.44587" lon="1.67497">
        <ele>325.06</ele>
        <time>2023-08-12T08:08:01Z</time>
      </trkpt>
      <trkpt lat="44.44575" lon="1.67501">
        <ele>324.1</ele>
        <time>2023-08-12T08:07:48Z</time>
      </trkpt>
      <trkpt lat="44.44559" lon="1.67504">
        <ele>323.14</ele>
        <time>2023-08-12T08:07:31Z</time>
      </trkpt>
      <trkpt lat="44.44548" lon="1.67507">
        <ele>322.18</ele>
        <time>2023-08-12T08:07:16Z</time>
      </trkpt>
      <trkpt lat="44.44539" lon="1.67509">
        <ele>321.22</ele>
        <time>2023-08-12T08:07:02Z</time>
      </trkpt>
      <trkpt lat="44.44534" lon="1.67508">
        <ele>321.22</ele>
        <time>2023-08-12T08:06:43Z</time>
      </trkpt>
      <trkpt lat="44.44533" lon="1.67504">
        <ele>320.74</ele>
        <time>2023-08-12T08:06:20Z</time>
      </trkpt>
      <trkpt lat="44.4453" lon="1.67501">
        <ele>320.26</ele>
        <time>2023-08-12T08:05:59Z</time>
      </trkpt>
      <trkpt lat="44.44531" lon="1.67502">
        <ele>320.26</ele>
        <time>2023-08-12T08:05:47Z</time>
      </trkpt>
      <trkpt lat="44.4453" lon="1.67502">
        <ele>319.3</ele>
        <time>2023-08-12T08:05:31Z</time>
      </trkpt>
      <trkpt lat="44.44529" lon="1.67502">
        <ele>318.81</ele>
        <time>2023-08-12T08:04:52Z</time>
      </trkpt>
      <trkpt lat="44.44529" lon="1.67503">
        <ele>319.78</ele>
        <time>2023-08-12T08:04:11Z</time>
      </trkpt>
      <trkpt lat="44.44526" lon="1.67501">
        <ele>318.33</ele>
        <time>2023-08-12T08:03:32Z</time>
      </trkpt>
      <trkpt lat="44.44524" lon="1.67495">
        <ele>317.85</ele>
        <time>2023-08-12T08:03:03Z</time>
      </trkpt>
      <trkpt lat="44.44528" lon="1.67494">
        <ele>317.85</ele>
        <time>2023-08-12T08:02:24Z</time>
      </trkpt>
      <trkpt lat="44.4453" lon="1.67495">
        <ele>317.85</ele>
        <time>2023-08-12T08:01:38Z</time>
      </trkpt>
      <trkpt lat="44.44528" lon="1.675">
        <ele>317.37</ele>
        <time>2023-08-12T08:00:47Z</time>
      </trkpt>
      <trkpt lat="44.4453" lon="1.67499">
        <ele>318.33</ele>
        <time>2023-08-12T08:00:07Z</time>
      </trkpt>
      <trkpt lat="44.4453" lon="1.675">
        <ele>316.41</ele>
        <time>2023-08-12T07:59:52Z</time>
      </trkpt>
      <trkpt lat="44.44529" lon="1.67507">
        <ele>316.41</ele>
        <time>2023-08-12T07:59:23Z</time>
      </trkpt>
      <trkpt lat="44.44528" lon="1.67506">
        <ele>315.93</ele>
        <time>2023-08-12T07:58:48Z</time>
      </trkpt>
      <trkpt lat="44.44531" lon="1.67505">
        <ele>315.45</ele>
        <time>2023-08-12T07:58:02Z</time>
      </trkpt>
      <trkpt lat="44.4453" lon="1.67503">
        <ele>315.45</ele>
        <time>2023-08-12T07:57:24Z</time>
      </trkpt>
      <trkpt lat="44.44528" lon="1.67505">
        <ele>315.45</ele>
        <time>2023-08-12T07:56:52Z</time>
      </trkpt>
      <trkpt lat="44.4453" lon="1.67505">
        <ele>315.45</ele>
        <time>2023-08-12T07:56:29Z</time>
      </trkpt>
      <trkpt lat="44.44531" lon="1.67502">
        <ele>315.93</ele>
        <time>2023-08-12T07:56:00Z</time>
      </trkpt>
      <trkpt lat="44.4453" lon="1.67503">
        <ele>315.93</ele>
        <time>2023-08-12T07:55:34Z</time>
      </trkpt>
      <trkpt lat="44.44534" lon="1.67505">
        <ele>315.93</ele>
        <time>2023-08-12T07:55:17Z</time>
      </trkpt>
      <trkpt lat="44.44532" lon="1.67502">
        <ele>315.93</ele>
        <time>2023-08-12T07:55:06Z</time>
      </trkpt>
      <trkpt lat="44.44532" lon="1.67501">
        <ele>316.41</ele>
        <time>2023-08-12T07:55:04Z</time>
      </trkpt>
      <trkpt lat="44.44532" lon="1.67502">
        <ele>320.74</ele>
        <time>2023-08-12T07:55:03Z</time>
      </trkpt>
      <trkpt lat="44.44532" lon="1.67502">
        <ele>311.12</ele>
        <time>2023-08-12T07:55:02Z</time>
      </trkpt>
      <trkpt lat="44.44532" lon="1.67502">
        <ele>316.41</ele>
        <time>2023-08-12T07:55:00Z</time>
      </trkpt>
      <trkpt lat="44.4453" lon="1.67504">
        <ele>315.45</ele>
        <time>2023-08-12T07:54:49Z</time>
      </trkpt>
      <trkpt lat="44.44518" lon="1.67501">
        <ele>314.01</ele>
        <time>2023-08-12T07:54:34Z</time>
      </trkpt>
      <trkpt lat="44.445" lon="1.67489">
        <ele>311.6</ele>
        <time>2023-08-12T07:54:17Z</time>
      </trkpt>
      <trkpt lat="44.44484" lon="1.6748">
        <ele>309.68</ele>
        <time>2023-08-12T07:54:00Z</time>
      </trkpt>
      <trkpt lat="44.44471" lon="1.6747">
        <ele>307.76</ele>
        <time>2023-08-12T07:53:44Z</time>
      </trkpt>
      <trkpt lat="44.44454" lon="1.67457">
        <ele>305.84</ele>
        <time>2023-08-12T07:53:27Z</time>
      </trkpt>
      <trkpt lat="44.44439" lon="1.67446">
        <ele>303.43</ele>
        <time>2023-08-12T07:53:10Z</time>
      </trkpt>
      <trkpt lat="44.44435" lon="1.67444">
        <ele>302.95</ele>
        <time>2023-08-12T07:53:06Z</time>
      </trkpt>
      <trkpt lat="44.4442" lon="1.67434">
        <ele>300.55</ele>
        <time>2023-08-12T07:52:49Z</time>
      </trkpt>
      <trkpt lat="44.44408" lon="1.67426">
        <ele>299.11</ele>
        <time>2023-08-12T07:52:35Z</time>
      </trkpt>
      <trkpt lat="44.44391" lon="1.67416">
        <ele>296.7</ele>
        <time>2023-08-12T07:52:17Z</time>
      </trkpt>
      <trkpt lat="44.44377" lon="1.67406">
        <ele>294.78</ele>
        <time>2023-08-12T07:52:01Z</time>
      </trkpt>
      <trkpt lat="44.44365" lon="1.67396">
        <ele>293.34</ele>
        <time>2023-08-12T07:51:46Z</time>
      </trkpt>
      <trkpt lat="44.44352" lon="1.67385">
        <ele>291.42</ele>
        <time>2023-08-12T07:51:30Z</time>
      </trkpt>
      <trkpt lat="44.44338" lon="1.67374">
        <ele>289.01</ele>
        <time>2023-08-12T07:51:14Z</time>
      </trkpt>
      <trkpt lat="44.44327" lon="1.67369">
        <ele>286.61</ele>
        <time>2023-08-12T07:51:01Z</time>
      </trkpt>
      <trkpt lat="44.44315" lon="1.6736">
        <ele>284.21</ele>
        <time>2023-08-12T07:50:46Z</time>
      </trkpt>
      <trkpt lat="44.44307" lon="1.67352">
        <ele>282.28</ele>
        <time>2023-08-12T07:50:27Z</time>
      </trkpt>
      <trkpt lat="44.44294" lon="1.67338">
        <ele>279.88</ele>
        <time>2023-08-12T07:50:10Z</time>
      </trkpt>
      <trkpt lat="44.44281" lon="1.67321">
        <ele>277.48</ele>
        <time>2023-08-12T07:49:53Z</time>
      </trkpt>
      <trkpt lat="44.44281" lon="1.67312">
        <ele>275.07</ele>
        <time>2023-08-12T07:49:38Z</time>
      </trkpt>
      <trkpt lat="44.44276" lon="1.67304">
        <ele>273.15</ele>
        <time>2023-08-12T07:49:26Z</time>
      </trkpt>
      <trkpt lat="44.44269" lon="1.67319">
        <ele>271.23</ele>
        <time>2023-08-12T07:49:10Z</time>
      </trkpt>
      <trkpt lat="44.44264" lon="1.67338">
        <ele>269.31</ele>
        <time>2023-08-12T07:48:55Z</time>
      </trkpt>
      <trkpt lat="44.4426" lon="1.67359">
        <ele>266.9</ele>
        <time>2023-08-12T07:48:37Z</time>
      </trkpt>
      <trkpt lat="44.44258" lon="1.67374">
        <ele>264.98</ele>
        <time>2023-08-12T07:48:25Z</time>
      </trkpt>
      <trkpt lat="44.44257" lon="1.67391">
        <ele>263.06</ele>
        <time>2023-08-12T07:48:11Z</time>
      </trkpt>
      <trkpt lat="44.44259" lon="1.67409">
        <ele>261.14</ele>
        <time>2023-08-12T07:47:56Z</time>
      </trkpt>
      <trkpt lat="44.44255" lon="1.6742">
        <ele>258.25</ele>
        <time>2023-08-12T07:47:43Z</time>
      </trkpt>
      <trkpt lat="44.44243" lon="1.67412">
        <ele>256.33</ele>
        <time>2023-08-12T07:47:28Z</time>
      </trkpt>
      <trkpt lat="44.44227" lon="1.674">
        <ele>253.93</ele>
        <time>2023-08-12T07:47:10Z</time>
      </trkpt>
      <trkpt lat="44.44215" lon="1.67391">
        <ele>251.04</ele>
        <time>2023-08-12T07:46:55Z</time>
      </trkpt>
      <trkpt lat="44.44205" lon="1.67381">
        <ele>250.08</ele>
        <time>2023-08-12T07:46:42Z</time>
      </trkpt>
      <trkpt lat="44.44196" lon="1.67364">
        <ele>248.64</ele>
        <time>2023-08-12T07:46:28Z</time>
      </trkpt>
      <trkpt lat="44.44186" lon="1.67346">
        <ele>246.72</ele>
        <time>2023-08-12T07:46:12Z</time>
      </trkpt>
      <trkpt lat="44.44178" lon="1.67327">
        <ele>244.31</ele>
        <time>2023-08-12T07:45:55Z</time>
      </trkpt>
      <trkpt lat="44.44173" lon="1.67303">
        <ele>241.91</ele>
        <time>2023-08-12T07:45:36Z</time>
      </trkpt>
      <trkpt lat="44.44168" lon="1.67279">
        <ele>238.54</ele>
        <time>2023-08-12T07:45:18Z</time>
      </trkpt>
      <trkpt lat="44.44167" lon="1.67264">
        <ele>236.14</ele>
        <time>2023-08-12T07:45:05Z</time>
      </trkpt>
      <trkpt lat="44.44165" lon="1.6725">
        <ele>234.22</ele>
        <time>2023-08-12T07:44:47Z</time>
      </trkpt>
      <trkpt lat="44.44161" lon="1.67229">
        <ele>231.81</ele>
        <time>2023-08-12T07:44:31Z</time>
      </trkpt>
      <trkpt lat="44.44155" lon="1.67213">
        <ele>229.41</ele>
        <time>2023-08-12T07:44:17Z</time>
      </trkpt>
      <trkpt lat="44.44137" lon="1.67211">
        <ele>227.97</ele>
        <time>2023-08-12T07:44:00Z</time>
      </trkpt>
      <trkpt lat="44.44125" lon="1.67213">
        <ele>226.53</ele>
        <time>2023-08-12T07:43:44Z</time>
      </trkpt>
      <trkpt lat="44.44109" lon="1.67217">
        <ele>224.12</ele>
        <time>2023-08-12T07:43:28Z</time>
      </trkpt>
      <trkpt lat="44.44096" lon="1.67219">
        <ele>221.24</ele>
        <time>2023-08-12T07:43:12Z</time>
      </trkpt>
      <trkpt lat="44.44083" lon="1.6722">
        <ele>218.36</ele>
        <time>2023-08-12T07:42:57Z</time>
      </trkpt>
      <trkpt lat="44.44074" lon="1.67221">
        <ele>217.4</ele>
        <time>2023-08-12T07:42:43Z</time>
      </trkpt>
      <trkpt lat="44.44062" lon="1.6722">
        <ele>214.99</ele>
        <time>2023-08-12T07:42:28Z</time>
      </trkpt>
      <trkpt lat="44.44051" lon="1.67208">
        <ele>212.11</ele>
        <time>2023-08-12T07:42:12Z</time>
      </trkpt>
      <trkpt lat="44.44043" lon="1.67192">
        <ele>210.19</ele>
        <time>2023-08-12T07:41:55Z</time>
      </trkpt>
      <trkpt lat="44.44037" lon="1.67174">
        <ele>207.78</ele>
        <time>2023-08-12T07:41:40Z</time>
      </trkpt>
      <trkpt lat="44.44028" lon="1.67152">
        <ele>205.86</ele>
        <time>2023-08-12T07:41:22Z</time>
      </trkpt>
      <trkpt lat="44.44026" lon="1.67145">
        <ele>204.9</ele>
        <time>2023-08-12T07:41:16Z</time>
      </trkpt>
      <trkpt lat="44.4402" lon="1.67127">
        <ele>203.94</ele>
        <time>2023-08-12T07:41:02Z</time>
      </trkpt>
      <trkpt lat="44.44016" lon="1.67106">
        <ele>202.49</ele>
        <time>2023-08-12T07:40:45Z</time>
      </trkpt>
      <trkpt lat="44.44013" lon="1.67087">
        <ele>202.49</ele>
        <time>2023-08-12T07:40:29Z</time>
      </trkpt>
      <trkpt lat="44.44001" lon="1.67079">
        <ele>202.49</ele>
        <time>2023-08-12T07:40:11Z</time>
      </trkpt>
      <trkpt lat="44.43996" lon="1.67093">
        <ele>202.49</ele>
        <time>2023-08-12T07:39:56Z</time>
      </trkpt>
      <trkpt lat="44.4399" lon="1.67113">
        <ele>202.49</ele>
        <time>2023-08-12T07:39:40Z</time>
      </trkpt>
      <trkpt lat="44.43985" lon="1.6713">
        <ele>203.94</ele>
        <time>2023-08-12T07:39:25Z</time>
      </trkpt>
      <trkpt lat="44.43978" lon="1.67156">
        <ele>205.38</ele>
        <time>2023-08-12T07:39:07Z</time>
      </trkpt>
      <trkpt lat="44.43973" lon="1.67181">
        <ele>205.38</ele>
        <time>2023-08-12T07:38:48Z</time>
      </trkpt>
      <trkpt lat="44.43973" lon="1.67183">
        <ele>205.38</ele>
        <time>2023-08-12T07:38:46Z</time>
      </trkpt>
      <trkpt lat="44.43969" lon="1.672">
        <ele>204.9</ele>
        <time>2023-08-12T07:38:30Z</time>
      </trkpt>
      <trkpt lat="44.43966" lon="1.67215">
        <ele>203.94</ele>
        <time>2023-08-12T07:38:14Z</time>
      </trkpt>
      <trkpt lat="44.43963" lon="1.67222">
        <ele>203.46</ele>
        <time>2023-08-12T07:38:01Z</time>
      </trkpt>
      <trkpt lat="44.43963" lon="1.67221">
        <ele>204.42</ele>
        <time>2023-08-12T07:37:59Z</time>
      </trkpt>
      <trkpt lat="44.43963" lon="1.67221">
        <ele>203.94</ele>
        <time>2023-08-12T07:37:57Z</time>
      </trkpt>
      <trkpt lat="44.43963" lon="1.67227">
        <ele>203.46</ele>
        <time>2023-08-12T07:37:41Z</time>
      </trkpt>
      <trkpt lat="44.43961" lon="1.67241">
        <ele>200.57</ele>
        <time>2023-08-12T07:37:24Z</time>
      </trkpt>
      <trkpt lat="44.43958" lon="1.67256">
        <ele>198.65</ele>
        <time>2023-08-12T07:37:10Z</time>
      </trkpt>
      <trkpt lat="44.43955" lon="1.6727">
        <ele>196.73</ele>
        <time>2023-08-12T07:36:55Z</time>
      </trkpt>
      <trkpt lat="44.43953" lon="1.67283">
        <ele>195.28</ele>
        <time>2023-08-12T07:36:41Z</time>
      </trkpt>
      <trkpt lat="44.43943" lon="1.67284">
        <ele>192.88</ele>
        <time>2023-08-12T07:36:24Z</time>
      </trkpt>
      <trkpt lat="44.43932" lon="1.67282">
        <ele>190.96</ele>
        <time>2023-08-12T07:36:08Z</time>
      </trkpt>
      <trkpt lat="44.43921" lon="1.67282">
        <ele>188.56</ele>
        <time>2023-08-12T07:35:53Z</time>
      </trkpt>
      <trkpt lat="44.43908" lon="1.67282">
        <ele>187.11</ele>
        <time>2023-08-12T07:35:38Z</time>
      </trkpt>
      <trkpt lat="44.43906" lon="1.67283">
        <ele>186.15</ele>
        <time>2023-08-12T07:35:20Z</time>
      </trkpt>
      <trkpt lat="44.43902" lon="1.67283">
        <ele>185.19</ele>
        <time>2023-08-12T07:35:06Z</time>
      </trkpt>
      <trkpt lat="44.43911" lon="1.67291">
        <ele>183.27</ele>
        <time>2023-08-12T07:34:51Z</time>
      </trkpt>
      <trkpt lat="44.43921" lon="1.67303">
        <ele>180.38</ele>
        <time>2023-08-12T07:34:35Z</time>
      </trkpt>
      <trkpt lat="44.43929" lon="1.67317">
        <ele>178.94</ele>
        <time>2023-08-12T07:34:19Z</time>
      </trkpt>
      <trkpt lat="44.43937" lon="1.67325">
        <ele>177.02</ele>
        <time>2023-08-12T07:34:06Z</time>
      </trkpt>
      <trkpt lat="44.4395" lon="1.6734">
        <ele>174.62</ele>
        <time>2023-08-12T07:33:48Z</time>
      </trkpt>
      <trkpt lat="44.43959" lon="1.67345">
        <ele>173.17</ele>
        <time>2023-08-12T07:33:32Z</time>
      </trkpt>
      <trkpt lat="44.43975" lon="1.67347">
        <ele>170.29</ele>
        <time>2023-08-12T07:33:16Z</time>
      </trkpt>
      <trkpt lat="44.43984" lon="1.67341">
        <ele>169.33</ele>
        <time>2023-08-12T07:33:08Z</time>
      </trkpt>
      <trkpt lat="44.43993" lon="1.67337">
        <ele>167.41</ele>
        <time>2023-08-12T07:32:55Z</time>
      </trkpt>
      <trkpt lat="44.43999" lon="1.67331">
        <ele>165.48</ele>
        <time>2023-08-12T07:32:41Z</time>
      </trkpt>
      <trkpt lat="44.44008" lon="1.67319">
        <ele>163.56</ele>
        <time>2023-08-12T07:32:25Z</time>
      </trkpt>
      <trkpt lat="44.4402" lon="1.6732">
        <ele>162.12</ele>
        <time>2023-08-12T07:32:11Z</time>
      </trkpt>
      <trkpt lat="44.44029" lon="1.67333">
        <ele>160.68</ele>
        <time>2023-08-12T07:31:56Z</time>
      </trkpt>
      <trkpt lat="44.44037" lon="1.67351">
        <ele>158.75</ele>
        <time>2023-08-12T07:31:39Z</time>
      </trkpt>
      <trkpt lat="44.44038" lon="1.67363">
        <ele>157.31</ele>
        <time>2023-08-12T07:31:26Z</time>
      </trkpt>
      <trkpt lat="44.44033" lon="1.6738">
        <ele>154.91</ele>
        <time>2023-08-12T07:31:10Z</time>
      </trkpt>
      <trkpt lat="44.44025" lon="1.67394">
        <ele>152.99</ele>
        <time>2023-08-12T07:30:54Z</time>
      </trkpt>
      <trkpt lat="44.44017" lon="1.67406">
        <ele>151.06</ele>
        <time>2023-08-12T07:30:39Z</time>
      </trkpt>
      <trkpt lat="44.44014" lon="1.67419">
        <ele>150.1</ele>
        <time>2023-08-12T07:30:25Z</time>
      </trkpt>
      <trkpt lat="44.44015" lon="1.67441">
        <ele>148.18</ele>
        <time>2023-08-12T07:30:09Z</time>
      </trkpt>
      <trkpt lat="44.4402" lon="1.67458">
        <ele>147.22</ele>
        <time>2023-08-12T07:29:55Z</time>
      </trkpt>
      <trkpt lat="44.44027" lon="1.67474">
        <ele>145.78</ele>
        <time>2023-08-12T07:29:40Z</time>
      </trkpt>
      <trkpt lat="44.44027" lon="1.67484">
        <ele>145.3</ele>
        <time>2023-08-12T07:29:33Z</time>
      </trkpt>
      <trkpt lat="44.44029" lon="1.67508">
        <ele>144.82</ele>
        <time>2023-08-12T07:29:17Z</time>
      </trkpt>
      <trkpt lat="44.44029" lon="1.67533">
        <ele>142.89</ele>
        <time>2023-08-12T07:29:01Z</time>
      </trkpt>
      <trkpt lat="44.44028" lon="1.67549">
        <ele>142.89</ele>
        <time>2023-08-12T07:28:49Z</time>
      </trkpt>
      <trkpt lat="44.44028" lon="1.67555">
        <ele>142.89</ele>
        <time>2023-08-12T07:28:45Z</time>
      </trkpt>
      <trkpt lat="44.44019" lon="1.67579">
        <ele>142.89</ele>
        <time>2023-08-12T07:28:29Z</time>
      </trkpt>
      <trkpt lat="44.44016" lon="1.67594">
        <ele>142.41</ele>
        <time>2023-08-12T07:28:16Z</time>
      </trkpt>
      <trkpt lat="44.44018" lon="1.67605">
        <ele>142.41</ele>
        <time>2023-08-12T07:28:04Z</time>
      </trkpt>
      <trkpt lat="44.44019" lon="1.67618">
        <ele>142.41</ele>
        <time>2023-08-12T07:27:43Z</time>
      </trkpt>
      <trkpt lat="44.44019" lon="1.67618">
        <ele>142.41</ele>
        <time>2023-08-12T07:27:20Z</time>
      </trkpt>
      <trkpt lat="44.4402" lon="1.67622">
        <ele>141.93</ele>
        <time>2023-08-12T07:26:57Z</time>
      </trkpt>
      <trkpt lat="44.44022" lon="1.67623">
        <ele>142.41</ele>
        <time>2023-08-12T07:26:36Z</time>
      </trkpt>
      <trkpt lat="44.44022" lon="1.67625">
        <ele>142.41</ele>
        <time>2023-08-12T07:26:20Z</time>
      </trkpt>
      <trkpt lat="44.44023" lon="1.67625">
        <ele>142.41</ele>
        <time>2023-08-12T07:26:04Z</time>
      </trkpt>
      <trkpt lat="44.44033" lon="1.67626">
        <ele>141.93</ele>
        <time>2023-08-12T07:25:50Z</time>
      </trkpt>
      <trkpt lat="44.44047" lon="1.67616">
        <ele>141.93</ele>
        <time>2023-08-12T07:25:35Z</time>
      </trkpt>
      <trkpt lat="44.44069" lon="1.67599">
        <ele>141.93</ele>
        <time>2023-08-12T07:25:16Z</time>
      </trkpt>
      <trkpt lat="44.4408" lon="1.67593">
        <ele>141.93</ele>
        <time>2023-08-12T07:25:05Z</time>
      </trkpt>
      <trkpt lat="44.44096" lon="1.67591">
        <ele>141.93</ele>
        <time>2023-08-12T07:24:51Z</time>
      </trkpt>
      <trkpt lat="44.44097" lon="1.67591">
        <ele>141.93</ele>
        <time>2023-08-12T07:24:50Z</time>
      </trkpt>
      <trkpt lat="44.44116" lon="1.67595">
        <ele>141.93</ele>
        <time>2023-08-12T07:24:33Z</time>
      </trkpt>
      <trkpt lat="44.44136" lon="1.67601">
        <ele>141.93</ele>
        <time>2023-08-12T07:24:16Z</time>
      </trkpt>
      <trkpt lat="44.44138" lon="1.67602">
        <ele>141.93</ele>
        <time>2023-08-12T07:24:14Z</time>
      </trkpt>
      <trkpt lat="44.44156" lon="1.67611">
        <ele>143.37</ele>
        <time>2023-08-12T07:23:58Z</time>
      </trkpt>
      <trkpt lat="44.44179" lon="1.67629">
        <ele>143.37</ele>
        <time>2023-08-12T07:23:39Z</time>
      </trkpt>
      <trkpt lat="44.44185" lon="1.67637">
        <ele>143.37</ele>
        <time>2023-08-12T07:23:33Z</time>
      </trkpt>
      <trkpt lat="44.44194" lon="1.67654">
        <ele>143.37</ele>
        <time>2023-08-12T07:23:21Z</time>
      </trkpt>
      <trkpt lat="44.44209" lon="1.67676">
        <ele>143.85</ele>
        <time>2023-08-12T07:23:05Z</time>
      </trkpt>
      <trkpt lat="44.44224" lon="1.67701">
        <ele>142.89</ele>
        <time>2023-08-12T07:22:48Z</time>
      </trkpt>
      <trkpt lat="44.4423" lon="1.6771">
        <ele>142.89</ele>
        <time>2023-08-12T07:22:42Z</time>
      </trkpt>
      <trkpt lat="44.44231" lon="1.67711">
        <ele>142.89</ele>
        <time>2023-08-12T07:22:41Z</time>
      </trkpt>
      <trkpt lat="44.44239" lon="1.6773">
        <ele>143.37</ele>
        <time>2023-08-12T07:22:25Z</time>
      </trkpt>
      <trkpt lat="44.44246" lon="1.67747">
        <ele>144.34</ele>
        <time>2023-08-12T07:22:11Z</time>
      </trkpt>
      <trkpt lat="44.44256" lon="1.67767">
        <ele>147.7</ele>
        <time>2023-08-12T07:21:55Z</time>
      </trkpt>
      <trkpt lat="44.44265" lon="1.67784">
        <ele>149.14</ele>
        <time>2023-08-12T07:21:42Z</time>
      </trkpt>
      <trkpt lat="44.44275" lon="1.67808">
        <ele>148.66</ele>
        <time>2023-08-12T07:21:25Z</time>
      </trkpt>
      <trkpt lat="44.44276" lon="1.67809">
        <ele>148.66</ele>
        <time>2023-08-12T07:21:24Z</time>
      </trkpt>
      <trkpt lat="44.44278" lon="1.67834">
        <ele>147.7</ele>
        <time>2023-08-12T07:21:07Z</time>
      </trkpt>
      <trkpt lat="44.44281" lon="1.67855">
        <ele>147.22</ele>
        <time>2023-08-12T07:20:51Z</time>
      </trkpt>
      <trkpt lat="44.44285" lon="1.67883">
        <ele>146.26</ele>
        <time>2023-08-12T07:20:33Z</time>
      </trkpt>
      <trkpt lat="44.44286" lon="1.67886">
        <ele>146.26</ele>
        <time>2023-08-12T07:20:31Z</time>
      </trkpt>
      <trkpt lat="44.44287" lon="1.67889">
        <ele>146.26</ele>
        <time>2023-08-12T07:20:29Z</time>
      </trkpt>
      <trkpt lat="44.4429" lon="1.67911">
        <ele>147.22</ele>
        <time>2023-08-12T07:20:13Z</time>
      </trkpt>
      <trkpt lat="44.44289" lon="1.67932">
        <ele>148.66</ele>
        <time>2023-08-12T07:19:58Z</time>
      </trkpt>
      <trkpt lat="44.44289" lon="1.67955">
        <ele>147.7</ele>
        <time>2023-08-12T07:19:44Z</time>
      </trkpt>
      <trkpt lat="44.44289" lon="1.67982">
        <ele>147.7</ele>
        <time>2023-08-12T07:19:29Z</time>
      </trkpt>
      <trkpt lat="44.44286" lon="1.68012">
        <ele>148.18</ele>
        <time>2023-08-12T07:19:13Z</time>
      </trkpt>
      <trkpt lat="44.44279" lon="1.68039">
        <ele>147.22</ele>
        <time>2023-08-12T07:18:56Z</time>
      </trkpt>
      <trkpt lat="44.4427" lon="1.68062">
        <ele>147.22</ele>
        <time>2023-08-12T07:18:39Z</time>
      </trkpt>
      <trkpt lat="44.44266" lon="1.68088">
        <ele>147.7</ele>
        <time>2023-08-12T07:18:22Z</time>
      </trkpt>
      <trkpt lat="44.44265" lon="1.68107">
        <ele>148.18</ele>
        <time>2023-08-12T07:18:09Z</time>
      </trkpt>
      <trkpt lat="44.44268" lon="1.68128">
        <ele>148.66</ele>
        <time>2023-08-12T07:17:51Z</time>
      </trkpt>
      <trkpt lat="44.44273" lon="1.68141">
        <ele>148.66</ele>
        <time>2023-08-12T07:17:41Z</time>
      </trkpt>
      <trkpt lat="44.44291" lon="1.68162">
        <ele>149.14</ele>
        <time>2023-08-12T07:17:23Z</time>
      </trkpt>
      <trkpt lat="44.44311" lon="1.68182">
        <ele>149.62</ele>
        <time>2023-08-12T07:17:04Z</time>
      </trkpt>
      <trkpt lat="44.44329" lon="1.68201">
        <ele>150.58</ele>
        <time>2023-08-12T07:16:45Z</time>
      </trkpt>
      <trkpt lat="44.44347" lon="1.6822">
        <ele>150.58</ele>
        <time>2023-08-12T07:16:27Z</time>
      </trkpt>
      <trkpt lat="44.44368" lon="1.6825">
        <ele>150.58</ele>
        <time>2023-08-12T07:16:04Z</time>
      </trkpt>
      <trkpt lat="44.44381" lon="1.68277">
        <ele>150.58</ele>
        <time>2023-08-12T07:15:45Z</time>
      </trkpt>
      <trkpt lat="44.44396" lon="1.68304">
        <ele>151.06</ele>
        <time>2023-08-12T07:15:28Z</time>
      </trkpt>
      <trkpt lat="44.44406" lon="1.68321">
        <ele>151.06</ele>
        <time>2023-08-12T07:15:10Z</time>
      </trkpt>
      <trkpt lat="44.44418" lon="1.68345">
        <ele>150.58</ele>
        <time>2023-08-12T07:14:53Z</time>
      </trkpt>
      <trkpt lat="44.44425" lon="1.68369">
        <ele>150.1</ele>
        <time>2023-08-12T07:14:35Z</time>
      </trkpt>
      <trkpt lat="44.44431" lon="1.68389">
        <ele>149.14</ele>
        <time>2023-08-12T07:14:20Z</time>
      </trkpt>
      <trkpt lat="44.44445" lon="1.68415">
        <ele>149.14</ele>
        <time>2023-08-12T07:14:01Z</time>
      </trkpt>
      <trkpt lat="44.4445" lon="1.68425">
        <ele>149.14</ele>
        <time>2023-08-12T07:13:55Z</time>
      </trkpt>
      <trkpt lat="44.44456" lon="1.68451">
        <ele>149.14</ele>
        <time>2023-08-12T07:13:39Z</time>
      </trkpt>
      <trkpt lat="44.44462" lon="1.68479">
        <ele>149.14</ele>
        <time>2023-08-12T07:13:20Z</time>
      </trkpt>
      <trkpt lat="44.44471" lon="1.6851">
        <ele>149.62</ele>
        <time>2023-08-12T07:13:00Z</time>
      </trkpt>
      <trkpt lat="44.44478" lon="1.68538">
        <ele>150.58</ele>
        <time>2023-08-12T07:12:43Z</time>
      </trkpt>
      <trkpt lat="44.44477" lon="1.68563">
        <ele>153.47</ele>
        <time>2023-08-12T07:12:28Z</time>
      </trkpt>
      <trkpt lat="44.44478" lon="1.68579">
        <ele>154.43</ele>
        <time>2023-08-12T07:12:13Z</time>
      </trkpt>
      <trkpt lat="44.44489" lon="1.68606">
        <ele>154.91</ele>
        <time>2023-08-12T07:11:56Z</time>
      </trkpt>
      <trkpt lat="44.4449" lon="1.68608">
        <ele>154.91</ele>
        <time>2023-08-12T07:11:55Z</time>
      </trkpt>
      <trkpt lat="44.44503" lon="1.68636">
        <ele>156.35</ele>
        <time>2023-08-12T07:11:37Z</time>
      </trkpt>
      <trkpt lat="44.4451" lon="1.68665">
        <ele>156.35</ele>
        <time>2023-08-12T07:11:19Z</time>
      </trkpt>
      <trkpt lat="44.44511" lon="1.6867">
        <ele>156.35</ele>
        <time>2023-08-12T07:11:16Z</time>
      </trkpt>
      <trkpt lat="44.44516" lon="1.68695">
        <ele>154.91</ele>
        <time>2023-08-12T07:10:59Z</time>
      </trkpt>
      <trkpt lat="44.44522" lon="1.68722">
        <ele>154.43</ele>
        <time>2023-08-12T07:10:41Z</time>
      </trkpt>
      <trkpt lat="44.44533" lon="1.68747">
        <ele>152.99</ele>
        <time>2023-08-12T07:10:23Z</time>
      </trkpt>
      <trkpt lat="44.4454" lon="1.68771">
        <ele>151.54</ele>
        <time>2023-08-12T07:10:07Z</time>
      </trkpt>
      <trkpt lat="44.44546" lon="1.68796">
        <ele>150.1</ele>
        <time>2023-08-12T07:09:49Z</time>
      </trkpt>
      <trkpt lat="44.44548" lon="1.68801">
        <ele>148.66</ele>
        <time>2023-08-12T07:09:45Z</time>
      </trkpt>
      <trkpt lat="44.44556" lon="1.6883">
        <ele>149.14</ele>
        <time>2023-08-12T07:09:27Z</time>
      </trkpt>
      <trkpt lat="44.4456" lon="1.68842">
        <ele>149.14</ele>
        <time>2023-08-12T07:09:20Z</time>
      </trkpt>
      <trkpt lat="44.44565" lon="1.68868">
        <ele>149.62</ele>
        <time>2023-08-12T07:09:04Z</time>
      </trkpt>
      <trkpt lat="44.44564" lon="1.68872">
        <ele>151.06</ele>
        <time>2023-08-12T07:09:02Z</time>
      </trkpt>
      <trkpt lat="44.44562" lon="1.68901">
        <ele>151.06</ele>
        <time>2023-08-12T07:08:44Z</time>
      </trkpt>
      <trkpt lat="44.44568" lon="1.68919">
        <ele>150.58</ele>
        <time>2023-08-12T07:08:31Z</time>
      </trkpt>
      <trkpt lat="44.44586" lon="1.68937">
        <ele>149.62</ele>
        <time>2023-08-12T07:08:13Z</time>
      </trkpt>
      <trkpt lat="44.44614" lon="1.68948">
        <ele>147.7</ele>
        <time>2023-08-12T07:07:50Z</time>
      </trkpt>
      <trkpt lat="44.44637" lon="1.68955">
        <ele>147.7</ele>
        <time>2023-08-12T07:07:31Z</time>
      </trkpt>
      <trkpt lat="44.4464" lon="1.68956">
        <ele>147.7</ele>
        <time>2023-08-12T07:07:28Z</time>
      </trkpt>
      <trkpt lat="44.44651" lon="1.68959">
        <ele>148.18</ele>
        <time>2023-08-12T07:07:19Z</time>
      </trkpt>
      <trkpt lat="44.44672" lon="1.68966">
        <ele>149.62</ele>
        <time>2023-08-12T07:07:01Z</time>
      </trkpt>
      <trkpt lat="44.44696" lon="1.68976">
        <ele>151.06</ele>
        <time>2023-08-12T07:06:41Z</time>
      </trkpt>
      <trkpt lat="44.44718" lon="1.68984">
        <ele>151.06</ele>
        <time>2023-08-12T07:06:23Z</time>
      </trkpt>
      <trkpt lat="44.44737" lon="1.68994">
        <ele>150.58</ele>
        <time>2023-08-12T07:06:06Z</time>
      </trkpt>
      <trkpt lat="44.44753" lon="1.69008">
        <ele>150.1</ele>
        <time>2023-08-12T07:05:50Z</time>
      </trkpt>
      <trkpt lat="44.44771" lon="1.69031">
        <ele>149.14</ele>
        <time>2023-08-12T07:05:31Z</time>
      </trkpt>
      <trkpt lat="44.44783" lon="1.69054">
        <ele>147.7</ele>
        <time>2023-08-12T07:05:14Z</time>
      </trkpt>
      <trkpt lat="44.44785" lon="1.6906">
        <ele>147.7</ele>
        <time>2023-08-12T07:05:10Z</time>
      </trkpt>
      <trkpt lat="44.44786" lon="1.69063">
        <ele>147.22</ele>
        <time>2023-08-12T07:05:08Z</time>
      </trkpt>
      <trkpt lat="44.44794" lon="1.69088">
        <ele>145.3</ele>
        <time>2023-08-12T07:04:51Z</time>
      </trkpt>
      <trkpt lat="44.44802" lon="1.6911">
        <ele>144.34</ele>
        <time>2023-08-12T07:04:36Z</time>
      </trkpt>
      <trkpt lat="44.44809" lon="1.69138">
        <ele>145.3</ele>
        <time>2023-08-12T07:04:19Z</time>
      </trkpt>
      <trkpt lat="44.44819" lon="1.69161">
        <ele>146.26</ele>
        <time>2023-08-12T07:04:02Z</time>
      </trkpt>
      <trkpt lat="44.44829" lon="1.6919">
        <ele>147.7</ele>
        <time>2023-08-12T07:03:44Z</time>
      </trkpt>
      <trkpt lat="44.4484" lon="1.69221">
        <ele>148.18</ele>
        <time>2023-08-12T07:03:25Z</time>
      </trkpt>
      <trkpt lat="44.44847" lon="1.69243">
        <ele>148.66</ele>
        <time>2023-08-12T07:03:11Z</time>
      </trkpt>
      <trkpt lat="44.4485" lon="1.69253">
        <ele>150.1</ele>
        <time>2023-08-12T07:03:05Z</time>
      </trkpt>
      <trkpt lat="44.44852" lon="1.69258">
        <ele>150.1</ele>
        <time>2023-08-12T07:03:02Z</time>
      </trkpt>
      <trkpt lat="44.44855" lon="1.69282">
        <ele>149.62</ele>
        <time>2023-08-12T07:02:47Z</time>
      </trkpt>
      <trkpt lat="44.44856" lon="1.69292">
        <ele>149.62</ele>
        <time>2023-08-12T07:02:39Z</time>
      </trkpt>
      <trkpt lat="44.44854" lon="1.69317">
        <ele>148.66</ele>
        <time>2023-08-12T07:02:22Z</time>
      </trkpt>
      <trkpt lat="44.44855" lon="1.69345">
        <ele>148.66</ele>
        <time>2023-08-12T07:02:05Z</time>
      </trkpt>
      <trkpt lat="44.44861" lon="1.69378">
        <ele>148.18</ele>
        <time>2023-08-12T07:01:43Z</time>
      </trkpt>
      <trkpt lat="44.44864" lon="1.694">
        <ele>147.7</ele>
        <time>2023-08-12T07:01:29Z</time>
      </trkpt>
      <trkpt lat="44.44867" lon="1.69423">
        <ele>145.78</ele>
        <time>2023-08-12T07:01:14Z</time>
      </trkpt>
      <trkpt lat="44.44866" lon="1.6943">
        <ele>145.78</ele>
        <time>2023-08-12T07:01:10Z</time>
      </trkpt>
      <trkpt lat="44.4487" lon="1.69438">
        <ele>145.78</ele>
        <time>2023-08-12T07:01:04Z</time>
      </trkpt>
      <trkpt lat="44.44877" lon="1.69463">
        <ele>145.78</ele>
        <time>2023-08-12T07:00:49Z</time>
      </trkpt>
      <trkpt lat="44.44881" lon="1.69472">
        <ele>145.78</ele>
        <time>2023-08-12T07:00:37Z</time>
      </trkpt>
      <trkpt lat="44.44891" lon="1.69493">
        <ele>144.82</ele>
        <time>2023-08-12T07:00:20Z</time>
      </trkpt>
      <trkpt lat="44.44892" lon="1.69509">
        <ele>142.89</ele>
        <time>2023-08-12T07:00:07Z</time>
      </trkpt>
      <trkpt lat="44.44899" lon="1.69522">
        <ele>141.45</ele>
        <time>2023-08-12T06:59:53Z</time>
      </trkpt>
      <trkpt lat="44.44901" lon="1.69526">
        <ele>140.49</ele>
        <time>2023-08-12T06:59:49Z</time>
      </trkpt>
      <trkpt lat="44.44911" lon="1.69545">
        <ele>138.57</ele>
        <time>2023-08-12T06:59:31Z</time>
      </trkpt>
      <trkpt lat="44.44913" lon="1.69575">
        <ele>137.13</ele>
        <time>2023-08-12T06:59:14Z</time>
      </trkpt>
      <trkpt lat="44.44914" lon="1.69598">
        <ele>135.2</ele>
        <time>2023-08-12T06:58:59Z</time>
      </trkpt>
      <trkpt lat="44.44914" lon="1.69606">
        <ele>135.2</ele>
        <time>2023-08-12T06:58:54Z</time>
      </trkpt>
      <trkpt lat="44.44914" lon="1.69608">
        <ele>135.2</ele>
        <time>2023-08-12T06:58:53Z</time>
      </trkpt>
      <trkpt lat="44.44907" lon="1.69611">
        <ele>135.2</ele>
        <time>2023-08-12T06:58:39Z</time>
      </trkpt>
      <trkpt lat="44.44907" lon="1.69602">
        <ele>135.2</ele>
        <time>2023-08-12T06:58:18Z</time>
      </trkpt>
      <trkpt lat="44.4491" lon="1.69601">
        <ele>135.2</ele>
        <time>2023-08-12T06:58:00Z</time>
      </trkpt>
      <trkpt lat="44.44906" lon="1.69605">
        <ele>134.72</ele>
        <time>2023-08-12T06:57:31Z</time>
      </trkpt>
      <trkpt lat="44.44902" lon="1.69608">
        <ele>136.16</ele>
        <time>2023-08-12T06:57:13Z</time>
      </trkpt>
      <trkpt lat="44.44901" lon="1.69607">
        <ele>134.24</ele>
        <time>2023-08-12T06:57:00Z</time>
      </trkpt>
      <trkpt lat="44.44902" lon="1.69605">
        <ele>134.72</ele>
        <time>2023-08-12T06:56:30Z</time>
      </trkpt>
      <trkpt lat="44.44901" lon="1.69603">
        <ele>133.76</ele>
        <time>2023-08-12T06:56:02Z</time>
      </trkpt>
      <trkpt lat="44.44901" lon="1.69601">
        <ele>134.72</ele>
        <time>2023-08-12T06:55:32Z</time>
      </trkpt>
      <trkpt lat="44.44905" lon="1.69598">
        <ele>134.72</ele>
        <time>2023-08-12T06:55:13Z</time>
      </trkpt>
      <trkpt lat="44.44904" lon="1.69598">
        <ele>134.72</ele>
        <time>2023-08-12T06:55:12Z</time>
      </trkpt>
    </trkseg>
  </trk>
</gpx>